KLM789 TNCC-EHAM
Flight info
| Callsign | KLM789 |
|---|---|
| Flight time | 8h 55m |
| Altitude | 39000 |
| Route | SCAPA1K SCAPA DCT DAWIN/M080F390 DCT KAVAX DCT 28N055W 31N050W 36N040W 41N030W 46N020W 48N015W DCT OMOKO DCT GUNSO DCT LULOX/N0455F390 DCT BAPHU DCT GAJIT DCT ENHAQ M197 REDFA |
| Aircraft | A332/H-SDE2E3FGHIJ3J5P2RWXYZ/LB1D1 |
Departure
| Time | 2026-04-17 00:05 |
|---|---|
| Airport | Hato International Airport (TNCC) |
Arrival
| Time | 2026-04-17 09:00 |
|---|---|
| Airport | Amsterdam Airport Schiphol (EHAM) |
| Time | Latitude | Longitude | Altitude | Speed | Heading |
|---|---|---|---|---|---|
| 2026-04-16 23:14 | 12.18571 | -68.95875 | 47 ft | 0 kts | 192° |
| 2026-04-16 23:52 | 12.18582 | -68.95872 | 45 ft | 4 kts | 193° |
| 2026-04-16 23:52 | 12.18609 | -68.95865 | 46 ft | 4 kts | 197° |
| 2026-04-16 23:53 | 12.18634 | -68.95857 | 43 ft | 4 kts | 202° |
| 2026-04-16 23:53 | 12.18659 | -68.95845 | 41 ft | 4 kts | 213° |
| 2026-04-16 23:53 | 12.18677 | -68.95828 | 42 ft | 4 kts | 255° |
| 2026-04-16 23:53 | 12.18679 | -68.95819 | 42 ft | 1 kts | 282° |
| 2026-04-16 23:58 | 12.18682 | -68.95833 | 46 ft | 4 kts | 282° |
| 2026-04-16 23:59 | 12.18691 | -68.95874 | 46 ft | 8 kts | 282° |
| 2026-04-16 23:59 | 12.18705 | -68.95942 | 46 ft | 12 kts | 282° |
| 2026-04-16 23:59 | 12.18725 | -68.96037 | 46 ft | 15 kts | 281° |
| 2026-04-16 23:59 | 12.18749 | -68.96155 | 46 ft | 18 kts | 282° |
| 2026-04-17 00:00 | 12.18775 | -68.96282 | 46 ft | 18 kts | 282° |
| 2026-04-17 00:00 | 12.18801 | -68.96410 | 46 ft | 18 kts | 282° |
| 2026-04-17 00:00 | 12.18828 | -68.96539 | 46 ft | 19 kts | 282° |
| 2026-04-17 00:00 | 12.18856 | -68.96668 | 45 ft | 19 kts | 282° |
| 2026-04-17 00:01 | 12.18884 | -68.96801 | 43 ft | 19 kts | 282° |
| 2026-04-17 00:01 | 12.18912 | -68.96937 | 44 ft | 20 kts | 282° |
| 2026-04-17 00:01 | 12.18941 | -68.97073 | 44 ft | 20 kts | 282° |
| 2026-04-17 00:01 | 12.18960 | -68.97164 | 44 ft | 20 kts | 282° |
| 2026-04-17 00:02 | 12.18998 | -68.97349 | 43 ft | 20 kts | 282° |
| 2026-04-17 00:02 | 12.19027 | -68.97489 | 43 ft | 20 kts | 282° |
| 2026-04-17 00:02 | 12.19041 | -68.97554 | 43 ft | 10 kts | 282° |
| 2026-04-17 00:02 | 12.19082 | -68.97594 | 43 ft | 8 kts | 348° |
| 2026-04-17 00:03 | 12.19141 | -68.97601 | 43 ft | 9 kts | 353° |
| 2026-04-17 00:03 | 12.19193 | -68.97576 | 43 ft | 8 kts | 50° |
| 2026-04-17 00:03 | 12.19210 | -68.97521 | 43 ft | 8 kts | 85° |
| 2026-04-17 00:03 | 12.19203 | -68.97466 | 43 ft | 7 kts | 101° |
| 2026-04-17 00:04 | 12.19191 | -68.97409 | 44 ft | 13 kts | 103° |
| 2026-04-17 00:04 | 12.19133 | -68.97148 | 43 ft | 64 kts | 102° |
| 2026-04-17 00:04 | 12.19005 | -68.96533 | 47 ft | 111 kts | 102° |
| 2026-04-17 00:04 | 12.18816 | -68.95625 | 44 ft | 149 kts | 102° |
| 2026-04-17 00:05 | 12.18578 | -68.94519 | 312 ft | 163 kts | 103° |
| 2026-04-17 00:05 | 12.18344 | -68.93402 | 803 ft | 158 kts | 102° |
| 2026-04-17 00:05 | 12.18128 | -68.92305 | 1353 ft | 156 kts | 100° |
| 2026-04-17 00:05 | 12.17941 | -68.91219 | 1908 ft | 154 kts | 100° |
| 2026-04-17 00:06 | 12.17766 | -68.90149 | 2314 ft | 154 kts | 99° |
| 2026-04-17 00:06 | 12.17759 | -68.89044 | 2577 ft | 160 kts | 77° |
| 2026-04-17 00:06 | 12.18368 | -68.88098 | 2909 ft | 165 kts | 40° |
| 2026-04-17 00:06 | 12.19421 | -68.87557 | 3153 ft | 177 kts | 25° |
| 2026-04-17 00:07 | 12.20636 | -68.87139 | 3311 ft | 192 kts | 21° |
| 2026-04-17 00:07 | 12.21972 | -68.86708 | 3440 ft | 210 kts | 21° |
| 2026-04-17 00:07 | 12.23427 | -68.86231 | 3599 ft | 229 kts | 21° |
| 2026-04-17 00:07 | 12.25000 | -68.85707 | 3792 ft | 247 kts | 21° |
| 2026-04-17 00:08 | 12.26683 | -68.85140 | 4061 ft | 261 kts | 21° |
| 2026-04-17 00:08 | 12.28408 | -68.84558 | 4492 ft | 267 kts | 21° |
| 2026-04-17 00:08 | 12.30181 | -68.83957 | 5050 ft | 269 kts | 21° |
| 2026-04-17 00:08 | 12.31967 | -68.83351 | 5561 ft | 272 kts | 21° |
| 2026-04-17 00:09 | 12.33778 | -68.82735 | 6113 ft | 274 kts | 21° |
| 2026-04-17 00:09 | 12.35588 | -68.82118 | 6680 ft | 275 kts | 21° |
| 2026-04-17 00:09 | 12.37411 | -68.81497 | 7208 ft | 276 kts | 20° |
| 2026-04-17 00:09 | 12.39246 | -68.80871 | 7767 ft | 279 kts | 20° |
| 2026-04-17 00:10 | 12.41098 | -68.80238 | 8307 ft | 281 kts | 19° |
| 2026-04-17 00:10 | 12.42955 | -68.79605 | 8908 ft | 282 kts | 19° |
| 2026-04-17 00:10 | 12.44805 | -68.78973 | 9476 ft | 285 kts | 19° |
| 2026-04-17 00:10 | 12.46697 | -68.78327 | 10018 ft | 288 kts | 18° |
| 2026-04-17 00:11 | 12.48639 | -68.77664 | 10276 ft | 301 kts | 18° |
| 2026-04-17 00:11 | 12.50684 | -68.76965 | 10485 ft | 316 kts | 18° |
| 2026-04-17 00:11 | 12.52824 | -68.76235 | 10683 ft | 330 kts | 18° |
| 2026-04-17 00:11 | 12.55049 | -68.75474 | 10866 ft | 343 kts | 18° |
| 2026-04-17 00:12 | 12.57327 | -68.74696 | 11086 ft | 354 kts | 18° |
| 2026-04-17 00:12 | 12.59687 | -68.73889 | 11419 ft | 360 kts | 18° |
| 2026-04-17 00:12 | 12.62077 | -68.73072 | 11773 ft | 365 kts | 17° |
| 2026-04-17 00:12 | 12.64513 | -68.72239 | 12120 ft | 371 kts | 17° |
| 2026-04-17 00:13 | 12.66966 | -68.71366 | 12518 ft | 374 kts | 18° |
| 2026-04-17 00:13 | 12.69430 | -68.70442 | 12915 ft | 378 kts | 19° |
| 2026-04-17 00:13 | 12.71870 | -68.69517 | 13314 ft | 381 kts | 19° |
| 2026-04-17 00:13 | 12.74367 | -68.68570 | 13709 ft | 384 kts | 19° |
| 2026-04-17 00:14 | 12.76885 | -68.67616 | 14095 ft | 386 kts | 18° |
| 2026-04-17 00:14 | 12.79418 | -68.66656 | 14464 ft | 388 kts | 18° |
| 2026-04-17 00:14 | 12.81956 | -68.65696 | 14851 ft | 389 kts | 18° |
| 2026-04-17 00:14 | 12.84506 | -68.64730 | 15196 ft | 392 kts | 18° |
| 2026-04-17 00:15 | 12.87075 | -68.63757 | 15550 ft | 393 kts | 18° |
| 2026-04-17 00:15 | 12.89616 | -68.62795 | 15906 ft | 395 kts | 18° |
| 2026-04-17 00:15 | 12.92204 | -68.61815 | 16258 ft | 397 kts | 18° |
| 2026-04-17 00:15 | 12.94805 | -68.60829 | 16598 ft | 400 kts | 18° |
| 2026-04-17 00:16 | 12.97420 | -68.59838 | 16930 ft | 402 kts | 18° |
| 2026-04-17 00:16 | 13.00054 | -68.58840 | 17259 ft | 404 kts | 18° |
| 2026-04-17 00:16 | 13.02689 | -68.57841 | 17592 ft | 405 kts | 18° |
| 2026-04-17 00:16 | 13.05342 | -68.56835 | 17922 ft | 407 kts | 18° |
| 2026-04-17 00:17 | 13.08006 | -68.55825 | 18227 ft | 409 kts | 18° |
| 2026-04-17 00:17 | 13.10690 | -68.54807 | 18486 ft | 411 kts | 18° |
| 2026-04-17 00:17 | 13.13387 | -68.53783 | 18733 ft | 413 kts | 18° |
| 2026-04-17 00:17 | 13.16093 | -68.52756 | 18984 ft | 415 kts | 18° |
| 2026-04-17 00:18 | 13.18780 | -68.51736 | 19234 ft | 417 kts | 18° |
| 2026-04-17 00:18 | 13.21503 | -68.50702 | 19482 ft | 419 kts | 18° |
| 2026-04-17 00:18 | 13.24251 | -68.49658 | 19723 ft | 421 kts | 18° |
| 2026-04-17 00:18 | 13.27005 | -68.48612 | 19969 ft | 423 kts | 18° |
| 2026-04-17 00:19 | 13.29767 | -68.47563 | 20188 ft | 425 kts | 18° |
| 2026-04-17 00:19 | 13.32550 | -68.46505 | 20432 ft | 427 kts | 18° |
| 2026-04-17 00:19 | 13.35348 | -68.45441 | 20678 ft | 429 kts | 18° |
| 2026-04-17 00:19 | 13.38151 | -68.44375 | 20911 ft | 430 kts | 17° |
| 2026-04-17 00:20 | 13.40972 | -68.43302 | 21154 ft | 432 kts | 17° |
| 2026-04-17 00:20 | 13.43798 | -68.42227 | 21382 ft | 434 kts | 17° |
| 2026-04-17 00:20 | 13.46637 | -68.41147 | 21610 ft | 436 kts | 17° |
| 2026-04-17 00:20 | 13.49493 | -68.40060 | 21844 ft | 437 kts | 17° |
| 2026-04-17 00:21 | 13.52322 | -68.38983 | 22068 ft | 439 kts | 17° |
| 2026-04-17 00:21 | 13.55193 | -68.37889 | 22294 ft | 441 kts | 17° |
| 2026-04-17 00:21 | 13.58075 | -68.36791 | 22525 ft | 442 kts | 17° |
| 2026-04-17 00:21 | 13.60968 | -68.35689 | 22745 ft | 444 kts | 17° |
| 2026-04-17 00:22 | 13.66799 | -68.33466 | 23186 ft | 448 kts | 17° |
| 2026-04-17 00:22 | 13.69730 | -68.32348 | 23412 ft | 449 kts | 17° |
| 2026-04-17 00:22 | 13.72679 | -68.31223 | 23607 ft | 451 kts | 17° |
| 2026-04-17 00:23 | 13.75626 | -68.30099 | 23780 ft | 453 kts | 17° |
| 2026-04-17 00:23 | 13.78550 | -68.28983 | 23951 ft | 455 kts | 17° |
| 2026-04-17 00:23 | 13.81518 | -68.27850 | 24129 ft | 456 kts | 17° |
| 2026-04-17 00:23 | 13.84514 | -68.26706 | 24307 ft | 458 kts | 17° |
| 2026-04-17 00:24 | 13.87511 | -68.25561 | 24482 ft | 460 kts | 17° |
| 2026-04-17 00:24 | 13.90524 | -68.24410 | 24672 ft | 462 kts | 17° |
| 2026-04-17 00:24 | 13.93549 | -68.23254 | 24841 ft | 464 kts | 17° |
| 2026-04-17 00:24 | 13.96541 | -68.22110 | 25003 ft | 466 kts | 17° |
| 2026-04-17 00:25 | 13.99589 | -68.20945 | 25194 ft | 467 kts | 17° |
| 2026-04-17 00:25 | 14.02647 | -68.19775 | 25374 ft | 469 kts | 17° |
| 2026-04-17 00:25 | 14.05714 | -68.18601 | 25565 ft | 470 kts | 17° |
| 2026-04-17 00:25 | 14.08790 | -68.17424 | 25736 ft | 472 kts | 17° |
| 2026-04-17 00:26 | 14.11883 | -68.16240 | 25903 ft | 474 kts | 17° |
| 2026-04-17 00:26 | 14.14986 | -68.15052 | 26082 ft | 476 kts | 17° |
| 2026-04-17 00:26 | 14.18107 | -68.13856 | 26263 ft | 478 kts | 17° |
| 2026-04-17 00:26 | 14.21231 | -68.12659 | 26441 ft | 479 kts | 17° |
| 2026-04-17 00:27 | 14.24358 | -68.11460 | 26614 ft | 481 kts | 17° |
| 2026-04-17 00:27 | 14.27502 | -68.10255 | 26784 ft | 483 kts | 17° |
| 2026-04-17 00:27 | 14.30618 | -68.09060 | 26959 ft | 485 kts | 17° |
| 2026-04-17 00:27 | 14.33796 | -68.07841 | 27136 ft | 486 kts | 17° |
| 2026-04-17 00:28 | 14.36971 | -68.06623 | 27318 ft | 488 kts | 17° |
| 2026-04-17 00:28 | 14.40167 | -68.05396 | 27490 ft | 490 kts | 17° |
| 2026-04-17 00:28 | 14.43381 | -68.04162 | 27665 ft | 491 kts | 17° |
| 2026-04-17 00:28 | 14.46548 | -68.02945 | 27858 ft | 493 kts | 17° |
| 2026-04-17 00:29 | 14.49773 | -68.01706 | 28012 ft | 495 kts | 17° |
| 2026-04-17 00:29 | 14.53011 | -68.00462 | 28187 ft | 496 kts | 16° |
| 2026-04-17 00:29 | 14.56254 | -67.99215 | 28369 ft | 498 kts | 16° |
| 2026-04-17 00:29 | 14.59511 | -67.97962 | 28528 ft | 500 kts | 16° |
| 2026-04-17 00:30 | 14.62778 | -67.96706 | 28690 ft | 501 kts | 16° |
| 2026-04-17 00:30 | 14.66056 | -67.95445 | 28841 ft | 503 kts | 16° |
| 2026-04-17 00:30 | 14.69337 | -67.94181 | 29004 ft | 504 kts | 16° |
| 2026-04-17 00:30 | 14.72631 | -67.92913 | 29160 ft | 506 kts | 16° |
| 2026-04-17 00:31 | 14.75939 | -67.91639 | 29312 ft | 507 kts | 16° |
| 2026-04-17 00:31 | 14.79251 | -67.90362 | 29465 ft | 509 kts | 16° |
| 2026-04-17 00:31 | 14.82569 | -67.89083 | 29618 ft | 510 kts | 16° |
| 2026-04-17 00:31 | 14.85864 | -67.87813 | 29759 ft | 511 kts | 16° |
| 2026-04-17 00:32 | 14.89214 | -67.86521 | 29915 ft | 513 kts | 16° |
| 2026-04-17 00:32 | 14.92559 | -67.85230 | 30079 ft | 513 kts | 16° |
| 2026-04-17 00:32 | 14.95917 | -67.83934 | 30185 ft | 515 kts | 16° |
| 2026-04-17 00:32 | 14.99279 | -67.82636 | 30280 ft | 516 kts | 16° |
| 2026-04-17 00:33 | 15.02649 | -67.81335 | 30396 ft | 518 kts | 16° |
| 2026-04-17 00:33 | 15.06036 | -67.80026 | 30511 ft | 519 kts | 16° |
| 2026-04-17 00:33 | 15.09428 | -67.78715 | 30614 ft | 520 kts | 16° |
| 2026-04-17 00:33 | 15.12776 | -67.77421 | 30724 ft | 522 kts | 16° |
| 2026-04-17 00:34 | 15.16184 | -67.76103 | 30833 ft | 523 kts | 16° |
| 2026-04-17 00:34 | 15.19601 | -67.74781 | 30936 ft | 524 kts | 16° |
| 2026-04-17 00:34 | 15.23020 | -67.73457 | 31118 ft | 524 kts | 16° |
| 2026-04-17 00:34 | 15.26432 | -67.72136 | 31313 ft | 523 kts | 16° |
| 2026-04-17 00:35 | 15.29848 | -67.70813 | 31468 ft | 523 kts | 16° |
| 2026-04-17 00:35 | 15.33264 | -67.69489 | 31624 ft | 524 kts | 16° |
| 2026-04-17 00:35 | 15.36677 | -67.68167 | 31808 ft | 524 kts | 16° |
| 2026-04-17 00:35 | 15.40040 | -67.66863 | 31989 ft | 524 kts | 15° |
| 2026-04-17 00:36 | 15.43465 | -67.65535 | 32195 ft | 525 kts | 15° |
| 2026-04-17 00:36 | 15.46884 | -67.64208 | 32417 ft | 525 kts | 15° |
| 2026-04-17 00:36 | 15.50309 | -67.62879 | 32635 ft | 525 kts | 15° |
| 2026-04-17 00:36 | 15.53724 | -67.61552 | 33034 ft | 521 kts | 16° |
| 2026-04-17 00:37 | 15.57107 | -67.60237 | 33452 ft | 518 kts | 16° |
| 2026-04-17 00:37 | 15.60482 | -67.58926 | 33657 ft | 518 kts | 16° |
| 2026-04-17 00:37 | 15.63881 | -67.57606 | 33840 ft | 520 kts | 16° |
| 2026-04-17 00:37 | 15.67268 | -67.56290 | 34032 ft | 520 kts | 16° |
| 2026-04-17 00:38 | 15.70649 | -67.54975 | 34236 ft | 520 kts | 16° |
| 2026-04-17 00:38 | 15.74044 | -67.53654 | 34397 ft | 520 kts | 15° |
| 2026-04-17 00:38 | 15.80798 | -67.50943 | 34639 ft | 527 kts | 21° |
| 2026-04-17 00:39 | 15.83985 | -67.49033 | 34903 ft | 531 kts | 33° |
| 2026-04-17 00:39 | 15.86819 | -67.46563 | 35256 ft | 530 kts | 40° |
| 2026-04-17 00:39 | 15.89510 | -67.43937 | 35467 ft | 530 kts | 42° |
| 2026-04-17 00:39 | 15.92132 | -67.41238 | 35616 ft | 531 kts | 43° |
| 2026-04-17 00:40 | 15.94728 | -67.38505 | 35773 ft | 531 kts | 43° |
| 2026-04-17 00:40 | 15.97314 | -67.35771 | 35946 ft | 531 kts | 43° |
| 2026-04-17 00:40 | 15.99917 | -67.33031 | 36109 ft | 531 kts | 43° |
| 2026-04-17 00:40 | 16.02523 | -67.30306 | 36285 ft | 531 kts | 43° |
| 2026-04-17 00:41 | 16.05135 | -67.27588 | 36449 ft | 531 kts | 43° |
| 2026-04-17 00:41 | 16.07729 | -67.24899 | 36609 ft | 531 kts | 43° |
| 2026-04-17 00:41 | 16.10354 | -67.22182 | 36762 ft | 531 kts | 43° |
| 2026-04-17 00:41 | 16.12975 | -67.19472 | 36932 ft | 531 kts | 43° |
| 2026-04-17 00:42 | 16.15600 | -67.16757 | 37123 ft | 530 kts | 43° |
| 2026-04-17 00:42 | 16.18220 | -67.14045 | 37299 ft | 530 kts | 43° |
| 2026-04-17 00:42 | 16.20826 | -67.11345 | 37437 ft | 530 kts | 43° |
| 2026-04-17 00:42 | 16.23445 | -67.08631 | 37580 ft | 530 kts | 43° |
| 2026-04-17 00:43 | 16.26051 | -67.05929 | 37725 ft | 530 kts | 43° |
| 2026-04-17 00:43 | 16.28662 | -67.03220 | 37860 ft | 530 kts | 43° |
| 2026-04-17 00:43 | 16.31243 | -67.00542 | 38010 ft | 530 kts | 43° |
| 2026-04-17 00:43 | 16.33852 | -66.97833 | 38143 ft | 529 kts | 43° |
| 2026-04-17 00:44 | 16.36466 | -66.95117 | 38276 ft | 529 kts | 43° |
| 2026-04-17 00:44 | 16.39079 | -66.92401 | 38403 ft | 529 kts | 43° |
| 2026-04-17 00:44 | 16.41663 | -66.89715 | 38577 ft | 529 kts | 43° |
| 2026-04-17 00:44 | 16.44260 | -66.87014 | 38737 ft | 527 kts | 43° |
| 2026-04-17 00:45 | 16.49477 | -66.81587 | 38832 ft | 530 kts | 43° |
| 2026-04-17 00:45 | 16.52089 | -66.78867 | 38946 ft | 529 kts | 43° |
| 2026-04-17 00:45 | 16.54702 | -66.76145 | 38996 ft | 530 kts | 43° |
| 2026-04-17 00:46 | 16.59886 | -66.70742 | 38992 ft | 530 kts | 43° |
| 2026-04-17 00:46 | 16.65106 | -66.65296 | 38999 ft | 529 kts | 43° |
| 2026-04-17 00:47 | 16.70317 | -66.59856 | 38995 ft | 529 kts | 43° |
| 2026-04-17 00:47 | 16.75504 | -66.54437 | 38996 ft | 530 kts | 43° |
| 2026-04-17 00:48 | 16.80737 | -66.48966 | 39000 ft | 533 kts | 43° |
| 2026-04-17 00:48 | 16.85952 | -66.43509 | 38999 ft | 534 kts | 43° |
| 2026-04-17 00:49 | 16.91216 | -66.37994 | 39002 ft | 533 kts | 43° |
| 2026-04-17 00:49 | 16.95570 | -66.33430 | 39001 ft | 533 kts | 43° |
| 2026-04-17 00:50 | 17.01658 | -66.27042 | 38997 ft | 530 kts | 43° |
| 2026-04-17 00:50 | 17.05978 | -66.22506 | 39008 ft | 529 kts | 43° |
| 2026-04-17 00:51 | 17.11191 | -66.17029 | 39003 ft | 533 kts | 43° |
| 2026-04-17 00:51 | 17.16428 | -66.11522 | 39006 ft | 533 kts | 43° |
| 2026-04-17 00:52 | 17.21674 | -66.06000 | 39019 ft | 533 kts | 43° |
| 2026-04-17 00:52 | 17.26875 | -66.00522 | 39028 ft | 533 kts | 43° |
| 2026-04-17 00:53 | 17.32093 | -65.95018 | 39022 ft | 530 kts | 43° |
| 2026-04-17 00:53 | 17.37293 | -65.89532 | 39016 ft | 531 kts | 43° |
| 2026-04-17 00:54 | 17.42475 | -65.84059 | 39021 ft | 533 kts | 43° |
| 2026-04-17 00:54 | 17.47704 | -65.78533 | 39014 ft | 533 kts | 43° |
| 2026-04-17 00:55 | 17.52932 | -65.73001 | 39019 ft | 533 kts | 43° |
| 2026-04-17 00:55 | 17.58112 | -65.67515 | 39023 ft | 531 kts | 44° |
| 2026-04-17 00:56 | 17.63302 | -65.62014 | 39016 ft | 528 kts | 44° |
| 2026-04-17 00:56 | 17.68483 | -65.56519 | 39021 ft | 531 kts | 44° |
| 2026-04-17 00:57 | 17.73671 | -65.51012 | 39018 ft | 534 kts | 44° |
| 2026-04-17 00:57 | 17.78888 | -65.45468 | 39021 ft | 534 kts | 44° |
| 2026-04-17 00:58 | 17.84103 | -65.39922 | 39027 ft | 533 kts | 44° |
| 2026-04-17 00:58 | 17.89297 | -65.34392 | 39025 ft | 530 kts | 44° |
| 2026-04-17 00:59 | 17.94471 | -65.28880 | 39025 ft | 529 kts | 44° |
| 2026-04-17 00:59 | 17.99627 | -65.23382 | 39027 ft | 533 kts | 44° |
| 2026-04-17 01:00 | 18.04841 | -65.17818 | 39031 ft | 534 kts | 44° |
| 2026-04-17 01:00 | 18.10053 | -65.12249 | 39039 ft | 534 kts | 44° |
| 2026-04-17 01:01 | 18.15223 | -65.06721 | 39021 ft | 531 kts | 44° |
| 2026-04-17 01:01 | 18.20397 | -65.01184 | 39018 ft | 530 kts | 44° |
| 2026-04-17 01:02 | 18.25570 | -64.95642 | 39019 ft | 530 kts | 44° |
| 2026-04-17 01:02 | 18.30779 | -64.90059 | 39036 ft | 535 kts | 44° |
| 2026-04-17 01:03 | 18.35979 | -64.84480 | 39033 ft | 536 kts | 44° |
| 2026-04-17 01:03 | 18.41188 | -64.78884 | 39028 ft | 532 kts | 44° |
| 2026-04-17 01:04 | 18.46357 | -64.73325 | 39025 ft | 530 kts | 44° |
| 2026-04-17 01:04 | 18.51525 | -64.67764 | 39042 ft | 530 kts | 44° |
| 2026-04-17 01:05 | 18.56690 | -64.62202 | 39038 ft | 530 kts | 44° |
| 2026-04-17 01:05 | 18.61828 | -64.56663 | 39038 ft | 530 kts | 44° |
| 2026-04-17 01:06 | 18.66980 | -64.51104 | 39044 ft | 527 kts | 44° |
| 2026-04-17 01:06 | 18.72087 | -64.45587 | 39027 ft | 523 kts | 44° |
| 2026-04-17 01:07 | 18.77144 | -64.40120 | 39038 ft | 523 kts | 44° |
| 2026-04-17 01:07 | 18.82232 | -64.34615 | 39030 ft | 523 kts | 44° |
| 2026-04-17 01:08 | 18.87345 | -64.29080 | 39050 ft | 528 kts | 44° |
| 2026-04-17 01:08 | 18.92489 | -64.23504 | 39043 ft | 529 kts | 44° |
| 2026-04-17 01:09 | 18.97599 | -64.17957 | 39045 ft | 524 kts | 44° |
| 2026-04-17 01:09 | 19.02658 | -64.12462 | 39045 ft | 524 kts | 44° |
| 2026-04-17 01:10 | 19.07745 | -64.06932 | 39049 ft | 524 kts | 44° |
| 2026-04-17 01:10 | 19.12836 | -64.01394 | 39049 ft | 525 kts | 44° |
| 2026-04-17 01:11 | 19.17946 | -63.95830 | 39064 ft | 527 kts | 44° |
| 2026-04-17 01:11 | 19.23004 | -63.90315 | 39053 ft | 523 kts | 44° |
| 2026-04-17 01:12 | 19.28066 | -63.84790 | 39058 ft | 522 kts | 44° |
| 2026-04-17 01:12 | 19.33121 | -63.79269 | 39057 ft | 522 kts | 44° |
| 2026-04-17 01:13 | 19.38176 | -63.73744 | 39052 ft | 522 kts | 44° |
| 2026-04-17 01:13 | 19.43245 | -63.68197 | 39059 ft | 526 kts | 44° |
| 2026-04-17 01:14 | 19.48318 | -63.62642 | 39060 ft | 528 kts | 44° |
| 2026-04-17 01:14 | 19.53425 | -63.57042 | 39060 ft | 527 kts | 44° |
| 2026-04-17 01:15 | 19.58526 | -63.51443 | 39065 ft | 527 kts | 44° |
| 2026-04-17 01:15 | 19.63628 | -63.45838 | 39064 ft | 527 kts | 44° |
| 2026-04-17 01:16 | 19.68727 | -63.40232 | 39076 ft | 529 kts | 44° |
| 2026-04-17 01:16 | 19.73802 | -63.34645 | 39066 ft | 526 kts | 44° |
| 2026-04-17 01:17 | 19.78873 | -63.29057 | 39070 ft | 524 kts | 44° |
| 2026-04-17 01:17 | 19.83905 | -63.23509 | 39074 ft | 524 kts | 44° |
| 2026-04-17 01:18 | 19.88967 | -63.17921 | 39075 ft | 524 kts | 44° |
| 2026-04-17 01:18 | 19.94024 | -63.12333 | 39085 ft | 524 kts | 44° |
| 2026-04-17 01:19 | 19.99078 | -63.06743 | 39076 ft | 523 kts | 44° |
| 2026-04-17 01:19 | 20.04089 | -63.01195 | 39075 ft | 522 kts | 44° |
| 2026-04-17 01:20 | 20.09129 | -62.95609 | 39081 ft | 522 kts | 44° |
| 2026-04-17 01:20 | 20.14161 | -62.90027 | 39079 ft | 522 kts | 44° |
| 2026-04-17 01:21 | 20.19194 | -62.84439 | 39078 ft | 522 kts | 44° |
| 2026-04-17 01:21 | 20.24184 | -62.78891 | 39086 ft | 521 kts | 44° |
| 2026-04-17 01:22 | 20.29211 | -62.73299 | 39081 ft | 522 kts | 44° |
| 2026-04-17 01:22 | 20.34235 | -62.67704 | 39083 ft | 522 kts | 44° |
| 2026-04-17 01:23 | 20.39255 | -62.62106 | 39086 ft | 522 kts | 44° |
| 2026-04-17 01:23 | 20.44279 | -62.56500 | 39089 ft | 522 kts | 44° |
| 2026-04-17 01:24 | 20.49289 | -62.50902 | 39086 ft | 519 kts | 44° |
| 2026-04-17 01:24 | 20.54287 | -62.45345 | 39092 ft | 519 kts | 42° |
| 2026-04-17 01:25 | 20.59509 | -62.40097 | 39091 ft | 518 kts | 39° |
| 2026-04-17 01:25 | 20.64888 | -62.34940 | 39091 ft | 518 kts | 39° |
| 2026-04-17 01:26 | 20.70253 | -62.29769 | 39108 ft | 519 kts | 39° |
| 2026-04-17 01:26 | 20.75562 | -62.24595 | 39093 ft | 515 kts | 40° |
| 2026-04-17 01:27 | 20.80808 | -62.19456 | 39096 ft | 515 kts | 39° |
| 2026-04-17 01:27 | 20.86108 | -62.14259 | 39100 ft | 517 kts | 39° |
| 2026-04-17 01:28 | 20.91427 | -62.09040 | 39099 ft | 518 kts | 40° |
| 2026-04-17 01:28 | 20.96714 | -62.03846 | 39107 ft | 517 kts | 40° |
| 2026-04-17 01:29 | 21.04603 | -61.96087 | 39102 ft | 514 kts | 40° |
| 2026-04-17 01:30 | 21.09874 | -61.90897 | 39099 ft | 514 kts | 39° |
| 2026-04-17 01:30 | 21.15150 | -61.85698 | 39105 ft | 515 kts | 39° |
| 2026-04-17 01:31 | 21.20386 | -61.80532 | 39120 ft | 515 kts | 39° |
| 2026-04-17 01:31 | 21.25663 | -61.75320 | 39107 ft | 515 kts | 39° |
| 2026-04-17 01:32 | 21.30941 | -61.70103 | 39109 ft | 515 kts | 39° |
| 2026-04-17 01:32 | 21.36215 | -61.64883 | 39110 ft | 515 kts | 39° |
| 2026-04-17 01:33 | 21.41455 | -61.59692 | 39108 ft | 515 kts | 39° |
| 2026-04-17 01:33 | 21.46730 | -61.54461 | 39119 ft | 515 kts | 39° |
| 2026-04-17 01:34 | 21.51980 | -61.49249 | 39110 ft | 513 kts | 39° |
| 2026-04-17 01:34 | 21.57194 | -61.44068 | 39116 ft | 513 kts | 39° |
| 2026-04-17 01:35 | 21.62438 | -61.38852 | 39114 ft | 513 kts | 39° |
| 2026-04-17 01:35 | 21.67648 | -61.33663 | 39114 ft | 513 kts | 40° |
| 2026-04-17 01:36 | 21.72889 | -61.28440 | 39119 ft | 512 kts | 39° |
| 2026-04-17 01:36 | 21.78117 | -61.23223 | 39122 ft | 511 kts | 39° |
| 2026-04-17 01:37 | 21.83296 | -61.18049 | 39125 ft | 511 kts | 39° |
| 2026-04-17 01:37 | 21.88513 | -61.12833 | 39126 ft | 511 kts | 40° |
| 2026-04-17 01:38 | 21.93719 | -61.07622 | 39125 ft | 511 kts | 40° |
| 2026-04-17 01:38 | 21.98925 | -61.02406 | 39122 ft | 511 kts | 39° |
| 2026-04-17 01:39 | 22.04121 | -60.97195 | 39130 ft | 514 kts | 39° |
| 2026-04-17 01:39 | 22.08483 | -60.92816 | 39130 ft | 514 kts | 39° |
| 2026-04-17 01:40 | 22.13732 | -60.87540 | 39126 ft | 514 kts | 39° |
| 2026-04-17 01:40 | 22.18970 | -60.82269 | 39134 ft | 513 kts | 40° |
| 2026-04-17 01:41 | 22.24145 | -60.77055 | 39138 ft | 509 kts | 40° |
| 2026-04-17 01:41 | 22.29324 | -60.71833 | 39130 ft | 510 kts | 39° |
| 2026-04-17 01:42 | 22.34524 | -60.66588 | 39137 ft | 512 kts | 39° |
| 2026-04-17 01:42 | 22.39706 | -60.61353 | 39142 ft | 512 kts | 39° |
| 2026-04-17 01:43 | 22.44912 | -60.56086 | 39136 ft | 509 kts | 40° |
| 2026-04-17 01:43 | 22.50052 | -60.50878 | 39139 ft | 504 kts | 40° |
| 2026-04-17 01:44 | 22.55176 | -60.45685 | 39135 ft | 504 kts | 40° |
| 2026-04-17 01:44 | 22.60277 | -60.40512 | 39140 ft | 507 kts | 40° |
| 2026-04-17 01:45 | 22.65435 | -60.35273 | 39157 ft | 508 kts | 40° |
| 2026-04-17 01:45 | 22.70571 | -60.30049 | 39143 ft | 504 kts | 40° |
| 2026-04-17 01:46 | 22.75678 | -60.24849 | 39146 ft | 503 kts | 40° |
| 2026-04-17 01:46 | 22.80787 | -60.19643 | 39146 ft | 503 kts | 40° |
| 2026-04-17 01:47 | 22.85852 | -60.14476 | 39148 ft | 504 kts | 40° |
| 2026-04-17 01:47 | 22.90973 | -60.09247 | 39151 ft | 505 kts | 40° |
| 2026-04-17 01:48 | 22.96090 | -60.04015 | 39149 ft | 504 kts | 40° |
| 2026-04-17 01:48 | 23.01207 | -59.98824 | 39151 ft | 503 kts | 39° |
| 2026-04-17 01:49 | 23.06431 | -59.93837 | 39154 ft | 502 kts | 38° |
| 2026-04-17 01:49 | 23.11725 | -59.88880 | 39171 ft | 502 kts | 38° |
| 2026-04-17 01:50 | 23.17017 | -59.83899 | 39156 ft | 501 kts | 38° |
| 2026-04-17 01:50 | 23.22246 | -59.78946 | 39159 ft | 501 kts | 38° |
| 2026-04-17 01:51 | 23.27503 | -59.73952 | 39161 ft | 501 kts | 38° |
| 2026-04-17 01:51 | 23.32758 | -59.68953 | 39162 ft | 501 kts | 38° |
| 2026-04-17 01:52 | 23.38018 | -59.63946 | 39163 ft | 501 kts | 38° |
| 2026-04-17 01:52 | 23.43228 | -59.58981 | 39164 ft | 500 kts | 38° |
| 2026-04-17 01:53 | 23.48475 | -59.53975 | 39167 ft | 500 kts | 38° |
| 2026-04-17 01:53 | 23.53682 | -59.49003 | 39167 ft | 500 kts | 38° |
| 2026-04-17 01:54 | 23.58924 | -59.43992 | 39176 ft | 500 kts | 38° |
| 2026-04-17 01:54 | 23.64159 | -59.38981 | 39170 ft | 500 kts | 38° |
| 2026-04-17 01:55 | 23.69385 | -59.33973 | 39170 ft | 499 kts | 38° |
| 2026-04-17 01:55 | 23.74571 | -59.28999 | 39170 ft | 500 kts | 38° |
| 2026-04-17 01:56 | 23.79806 | -59.23972 | 39176 ft | 500 kts | 38° |
| 2026-04-17 01:56 | 23.85034 | -59.18945 | 39181 ft | 499 kts | 38° |
| 2026-04-17 01:57 | 23.90241 | -59.13934 | 39181 ft | 498 kts | 38° |
| 2026-04-17 01:57 | 23.95409 | -59.08954 | 39184 ft | 498 kts | 38° |
| 2026-04-17 01:58 | 24.00628 | -59.03920 | 39184 ft | 498 kts | 38° |
| 2026-04-17 01:58 | 24.05828 | -58.98899 | 39185 ft | 498 kts | 39° |
| 2026-04-17 01:59 | 24.10991 | -58.93907 | 39184 ft | 497 kts | 39° |
| 2026-04-17 01:59 | 24.16183 | -58.88882 | 39184 ft | 497 kts | 39° |
| 2026-04-17 02:00 | 24.21374 | -58.83853 | 39189 ft | 497 kts | 39° |
| 2026-04-17 02:00 | 24.26536 | -58.78845 | 39187 ft | 498 kts | 39° |
| 2026-04-17 02:01 | 24.31732 | -58.73799 | 39192 ft | 498 kts | 39° |
| 2026-04-17 02:01 | 24.36882 | -58.68791 | 39189 ft | 496 kts | 39° |
| 2026-04-17 02:02 | 24.42038 | -58.63772 | 39189 ft | 495 kts | 39° |
| 2026-04-17 02:02 | 24.47196 | -58.58746 | 39206 ft | 495 kts | 39° |
| 2026-04-17 02:03 | 24.52337 | -58.53731 | 39193 ft | 494 kts | 39° |
| 2026-04-17 02:03 | 24.57474 | -58.48713 | 39194 ft | 493 kts | 39° |
| 2026-04-17 02:04 | 24.62569 | -58.43732 | 39195 ft | 494 kts | 39° |
| 2026-04-17 02:04 | 24.67700 | -58.38709 | 39194 ft | 494 kts | 39° |
| 2026-04-17 02:05 | 24.72828 | -58.33683 | 39198 ft | 493 kts | 39° |
| 2026-04-17 02:05 | 24.77935 | -58.28671 | 39197 ft | 491 kts | 39° |
| 2026-04-17 02:06 | 24.83040 | -58.23657 | 39200 ft | 491 kts | 39° |
| 2026-04-17 02:06 | 24.88144 | -58.18639 | 39196 ft | 491 kts | 39° |
| 2026-04-17 02:07 | 24.93249 | -58.13613 | 39191 ft | 492 kts | 39° |
| 2026-04-17 02:07 | 24.98345 | -58.08588 | 39206 ft | 490 kts | 39° |
| 2026-04-17 02:08 | 25.03405 | -58.03595 | 39194 ft | 490 kts | 39° |
| 2026-04-17 02:08 | 25.08486 | -57.98575 | 39211 ft | 490 kts | 39° |
| 2026-04-17 02:09 | 25.13569 | -57.93548 | 39213 ft | 490 kts | 39° |
| 2026-04-17 02:09 | 25.18644 | -57.88522 | 39204 ft | 490 kts | 39° |
| 2026-04-17 02:10 | 25.23710 | -57.83499 | 39208 ft | 490 kts | 39° |
| 2026-04-17 02:10 | 25.28753 | -57.78493 | 39206 ft | 490 kts | 39° |
| 2026-04-17 02:11 | 25.33829 | -57.73449 | 39203 ft | 490 kts | 39° |
| 2026-04-17 02:11 | 25.38890 | -57.68413 | 39211 ft | 488 kts | 40° |
| 2026-04-17 02:12 | 25.43932 | -57.63390 | 39216 ft | 488 kts | 40° |
| 2026-04-17 02:12 | 25.48984 | -57.58353 | 39221 ft | 489 kts | 40° |
| 2026-04-17 02:13 | 25.54005 | -57.53340 | 39216 ft | 489 kts | 40° |
| 2026-04-17 02:13 | 25.59056 | -57.48291 | 39217 ft | 487 kts | 40° |
| 2026-04-17 02:14 | 25.64072 | -57.43269 | 39218 ft | 485 kts | 40° |
| 2026-04-17 02:14 | 25.69081 | -57.38250 | 39221 ft | 485 kts | 40° |
| 2026-04-17 02:15 | 25.74098 | -57.33218 | 39218 ft | 486 kts | 40° |
| 2026-04-17 02:15 | 25.79087 | -57.28207 | 39220 ft | 486 kts | 40° |
| 2026-04-17 02:16 | 25.84088 | -57.23177 | 39226 ft | 483 kts | 40° |
| 2026-04-17 02:16 | 25.89072 | -57.18159 | 39224 ft | 483 kts | 40° |
| 2026-04-17 02:17 | 25.94022 | -57.13170 | 39225 ft | 483 kts | 40° |
| 2026-04-17 02:17 | 25.99004 | -57.08143 | 39226 ft | 483 kts | 40° |
| 2026-04-17 02:18 | 26.03973 | -57.03121 | 39220 ft | 481 kts | 40° |
| 2026-04-17 02:18 | 26.08923 | -56.98114 | 39225 ft | 481 kts | 40° |
| 2026-04-17 02:19 | 26.13844 | -56.93130 | 39231 ft | 481 kts | 40° |
| 2026-04-17 02:19 | 26.18791 | -56.88114 | 39234 ft | 481 kts | 40° |
| 2026-04-17 02:20 | 26.23710 | -56.83120 | 39225 ft | 480 kts | 40° |
| 2026-04-17 02:20 | 26.28639 | -56.78110 | 39232 ft | 479 kts | 40° |
| 2026-04-17 02:21 | 26.33572 | -56.73090 | 39232 ft | 479 kts | 40° |
| 2026-04-17 02:21 | 26.38494 | -56.68075 | 39234 ft | 479 kts | 40° |
| 2026-04-17 02:22 | 26.43384 | -56.63087 | 39231 ft | 479 kts | 40° |
| 2026-04-17 02:22 | 26.48305 | -56.58061 | 39233 ft | 479 kts | 40° |
| 2026-04-17 02:23 | 26.53226 | -56.53029 | 39231 ft | 479 kts | 40° |
| 2026-04-17 02:23 | 26.58143 | -56.47995 | 39242 ft | 479 kts | 40° |
| 2026-04-17 02:24 | 26.63020 | -56.42994 | 39233 ft | 478 kts | 40° |
| 2026-04-17 02:24 | 26.67921 | -56.37965 | 39234 ft | 478 kts | 40° |
| 2026-04-17 02:25 | 26.72822 | -56.32928 | 39235 ft | 478 kts | 40° |
| 2026-04-17 02:25 | 26.77724 | -56.27886 | 39248 ft | 478 kts | 40° |
| 2026-04-17 02:26 | 26.82583 | -56.22880 | 39238 ft | 477 kts | 40° |
| 2026-04-17 02:26 | 26.87473 | -56.17836 | 39238 ft | 477 kts | 40° |
| 2026-04-17 02:27 | 26.92370 | -56.12779 | 39241 ft | 477 kts | 40° |
| 2026-04-17 02:27 | 26.97257 | -56.07727 | 39241 ft | 477 kts | 40° |
| 2026-04-17 02:28 | 27.02115 | -56.02698 | 39241 ft | 477 kts | 41° |
| 2026-04-17 02:28 | 27.06986 | -55.97649 | 39241 ft | 476 kts | 41° |
| 2026-04-17 02:29 | 27.11832 | -55.92620 | 39241 ft | 476 kts | 41° |
| 2026-04-17 02:29 | 27.16700 | -55.87562 | 39243 ft | 476 kts | 41° |
| 2026-04-17 02:30 | 27.20771 | -55.83327 | 39246 ft | 476 kts | 41° |
| 2026-04-17 02:30 | 27.25588 | -55.78311 | 39243 ft | 475 kts | 41° |
| 2026-04-17 02:31 | 27.30434 | -55.73258 | 39244 ft | 475 kts | 41° |
| 2026-04-17 02:31 | 27.35285 | -55.68193 | 39243 ft | 475 kts | 41° |
| 2026-04-17 02:32 | 27.40094 | -55.63167 | 39244 ft | 474 kts | 41° |
| 2026-04-17 02:32 | 27.44929 | -55.58106 | 39246 ft | 474 kts | 41° |
| 2026-04-17 02:33 | 27.49756 | -55.53048 | 39248 ft | 474 kts | 41° |
| 2026-04-17 02:33 | 27.54582 | -55.47984 | 39249 ft | 474 kts | 41° |
| 2026-04-17 02:34 | 27.59403 | -55.42920 | 39249 ft | 473 kts | 41° |
| 2026-04-17 02:34 | 27.64191 | -55.37883 | 39249 ft | 473 kts | 41° |
| 2026-04-17 02:35 | 27.68997 | -55.32821 | 39249 ft | 473 kts | 41° |
| 2026-04-17 02:35 | 27.76223 | -55.25199 | 39249 ft | 473 kts | 41° |
| 2026-04-17 02:36 | 27.80994 | -55.20158 | 39252 ft | 472 kts | 41° |
| 2026-04-17 02:36 | 27.85794 | -55.15080 | 39252 ft | 472 kts | 41° |
| 2026-04-17 02:37 | 27.90601 | -55.09989 | 39249 ft | 472 kts | 41° |
| 2026-04-17 02:37 | 27.95402 | -55.04896 | 39251 ft | 472 kts | 41° |
| 2026-04-17 02:38 | 28.00027 | -54.99677 | 39249 ft | 473 kts | 50° |
| 2026-04-17 02:38 | 28.04035 | -54.93742 | 39249 ft | 474 kts | 52° |
| 2026-04-17 02:39 | 28.07895 | -54.87678 | 39252 ft | 475 kts | 53° |
| 2026-04-17 02:39 | 28.11709 | -54.81615 | 39251 ft | 475 kts | 53° |
| 2026-04-17 02:40 | 28.15543 | -54.75535 | 39251 ft | 474 kts | 53° |
| 2026-04-17 02:40 | 28.19388 | -54.69452 | 39253 ft | 474 kts | 53° |
| 2026-04-17 02:41 | 28.23231 | -54.63370 | 39251 ft | 474 kts | 53° |
| 2026-04-17 02:41 | 28.27044 | -54.57326 | 39251 ft | 474 kts | 53° |
| 2026-04-17 02:42 | 28.30880 | -54.51237 | 39255 ft | 474 kts | 53° |
| 2026-04-17 02:42 | 28.34710 | -54.45148 | 39252 ft | 474 kts | 53° |
| 2026-04-17 02:43 | 28.38546 | -54.39041 | 39250 ft | 474 kts | 53° |
| 2026-04-17 02:43 | 28.42372 | -54.32942 | 39252 ft | 474 kts | 53° |
| 2026-04-17 02:44 | 28.46196 | -54.26836 | 39255 ft | 473 kts | 53° |
| 2026-04-17 02:44 | 28.49989 | -54.20771 | 39255 ft | 473 kts | 53° |
| 2026-04-17 02:45 | 28.53808 | -54.14655 | 39249 ft | 473 kts | 53° |
| 2026-04-17 02:45 | 28.57597 | -54.08580 | 39254 ft | 473 kts | 53° |
| 2026-04-17 02:46 | 28.61399 | -54.02474 | 39252 ft | 472 kts | 53° |
| 2026-04-17 02:46 | 28.65197 | -53.96367 | 39257 ft | 471 kts | 53° |
| 2026-04-17 02:47 | 28.68984 | -53.90267 | 39258 ft | 471 kts | 53° |
| 2026-04-17 02:47 | 28.72741 | -53.84208 | 39257 ft | 471 kts | 53° |
| 2026-04-17 02:48 | 28.76527 | -53.78093 | 39259 ft | 471 kts | 53° |
| 2026-04-17 02:48 | 28.80293 | -53.72002 | 39256 ft | 470 kts | 53° |
| 2026-04-17 02:49 | 28.84038 | -53.65936 | 39260 ft | 469 kts | 53° |
| 2026-04-17 02:49 | 28.87796 | -53.59839 | 39260 ft | 469 kts | 53° |
| 2026-04-17 02:50 | 28.91550 | -53.53740 | 39268 ft | 469 kts | 53° |
| 2026-04-17 02:50 | 28.95302 | -53.47636 | 39262 ft | 468 kts | 53° |
| 2026-04-17 02:51 | 28.99041 | -53.41545 | 39260 ft | 468 kts | 53° |
| 2026-04-17 02:51 | 29.02757 | -53.35480 | 39263 ft | 468 kts | 53° |
| 2026-04-17 02:52 | 29.06496 | -53.29372 | 39265 ft | 468 kts | 53° |
| 2026-04-17 02:52 | 29.10224 | -53.23271 | 39264 ft | 466 kts | 53° |
| 2026-04-17 02:53 | 29.13916 | -53.17220 | 39265 ft | 466 kts | 53° |
| 2026-04-17 02:53 | 29.17627 | -53.11129 | 39265 ft | 466 kts | 53° |
| 2026-04-17 02:54 | 29.21337 | -53.05032 | 39266 ft | 466 kts | 53° |
| 2026-04-17 02:54 | 29.25044 | -52.98931 | 39263 ft | 465 kts | 53° |
| 2026-04-17 02:55 | 29.28712 | -52.92883 | 39267 ft | 464 kts | 53° |
| 2026-04-17 02:55 | 29.32405 | -52.86787 | 39260 ft | 464 kts | 53° |
| 2026-04-17 02:56 | 29.36071 | -52.80727 | 39268 ft | 464 kts | 53° |
| 2026-04-17 02:56 | 29.39750 | -52.74634 | 39261 ft | 463 kts | 54° |
| 2026-04-17 02:57 | 29.43414 | -52.68559 | 39264 ft | 462 kts | 54° |
| 2026-04-17 02:57 | 29.47074 | -52.62481 | 39264 ft | 462 kts | 54° |
| 2026-04-17 02:58 | 29.50731 | -52.56399 | 39266 ft | 462 kts | 54° |
| 2026-04-17 02:58 | 29.54382 | -52.50319 | 39270 ft | 462 kts | 54° |
| 2026-04-17 02:59 | 29.58003 | -52.44278 | 39267 ft | 460 kts | 54° |
| 2026-04-17 02:59 | 29.61635 | -52.38212 | 39265 ft | 460 kts | 54° |
| 2026-04-17 03:00 | 29.65263 | -52.32142 | 39268 ft | 460 kts | 54° |
| 2026-04-17 03:00 | 29.68891 | -52.26063 | 39272 ft | 460 kts | 54° |
| 2026-04-17 03:01 | 29.72481 | -52.20040 | 39264 ft | 458 kts | 54° |
| 2026-04-17 03:01 | 29.76078 | -52.13996 | 39267 ft | 458 kts | 54° |
| 2026-04-17 03:02 | 29.79678 | -52.07938 | 39264 ft | 458 kts | 54° |
| 2026-04-17 03:02 | 29.83252 | -52.01915 | 39263 ft | 458 kts | 54° |
| 2026-04-17 03:03 | 29.86847 | -51.95847 | 39267 ft | 458 kts | 54° |
| 2026-04-17 03:03 | 29.90441 | -51.89771 | 39265 ft | 458 kts | 54° |
| 2026-04-17 03:04 | 29.94034 | -51.83688 | 39262 ft | 458 kts | 54° |
| 2026-04-17 03:04 | 29.97623 | -51.77603 | 39260 ft | 458 kts | 54° |
| 2026-04-17 03:05 | 30.01177 | -51.71569 | 39265 ft | 457 kts | 54° |
| 2026-04-17 03:05 | 30.04749 | -51.65493 | 39267 ft | 456 kts | 54° |
| 2026-04-17 03:06 | 30.08315 | -51.59421 | 39264 ft | 456 kts | 54° |
| 2026-04-17 03:06 | 30.11857 | -51.53378 | 39268 ft | 456 kts | 54° |
| 2026-04-17 03:07 | 30.15417 | -51.47298 | 39269 ft | 456 kts | 55° |
| 2026-04-17 03:07 | 30.18965 | -51.41228 | 39268 ft | 456 kts | 55° |
| 2026-04-17 03:08 | 30.22501 | -51.35169 | 39269 ft | 456 kts | 55° |
| 2026-04-17 03:08 | 30.26049 | -51.29081 | 39272 ft | 456 kts | 54° |
| 2026-04-17 03:09 | 30.29597 | -51.22984 | 39258 ft | 456 kts | 55° |
| 2026-04-17 03:09 | 30.33140 | -51.16885 | 39271 ft | 456 kts | 55° |
| 2026-04-17 03:10 | 30.36659 | -51.10820 | 39256 ft | 456 kts | 55° |
| 2026-04-17 03:10 | 30.40200 | -51.04705 | 39272 ft | 457 kts | 54° |
| 2026-04-17 03:11 | 30.43720 | -50.98620 | 39260 ft | 457 kts | 54° |
| 2026-04-17 03:11 | 30.47261 | -50.92488 | 39273 ft | 457 kts | 55° |
| 2026-04-17 03:12 | 30.50808 | -50.86335 | 39260 ft | 458 kts | 55° |
| 2026-04-17 03:12 | 30.54347 | -50.80188 | 39262 ft | 459 kts | 54° |
| 2026-04-17 03:13 | 30.57879 | -50.74044 | 39269 ft | 460 kts | 54° |
| 2026-04-17 03:13 | 30.61428 | -50.67859 | 39267 ft | 460 kts | 54° |
| 2026-04-17 03:14 | 30.64981 | -50.61659 | 39269 ft | 460 kts | 54° |
| 2026-04-17 03:14 | 30.68527 | -50.55460 | 39267 ft | 461 kts | 54° |
| 2026-04-17 03:15 | 30.72056 | -50.49282 | 39268 ft | 461 kts | 54° |
| 2026-04-17 03:15 | 30.75603 | -50.43063 | 39268 ft | 461 kts | 54° |
| 2026-04-17 03:16 | 30.79149 | -50.36835 | 39272 ft | 461 kts | 54° |
| 2026-04-17 03:16 | 30.82695 | -50.30599 | 39271 ft | 461 kts | 54° |
| 2026-04-17 03:17 | 30.86237 | -50.24359 | 39272 ft | 461 kts | 54° |
| 2026-04-17 03:17 | 30.89750 | -50.18160 | 39273 ft | 461 kts | 54° |
| 2026-04-17 03:18 | 30.93292 | -50.11900 | 39271 ft | 461 kts | 54° |
| 2026-04-17 03:18 | 30.96814 | -50.05665 | 39270 ft | 460 kts | 54° |
| 2026-04-17 03:19 | 31.00312 | -49.99469 | 39269 ft | 460 kts | 54° |
| 2026-04-17 03:19 | 31.03850 | -49.93246 | 39271 ft | 460 kts | 54° |
| 2026-04-17 03:20 | 31.06794 | -49.88079 | 39274 ft | 459 kts | 54° |
| 2026-04-17 03:20 | 31.10327 | -49.81868 | 39273 ft | 458 kts | 54° |
| 2026-04-17 03:21 | 31.13846 | -49.75668 | 39269 ft | 458 kts | 54° |
| 2026-04-17 03:21 | 31.17367 | -49.69453 | 39269 ft | 458 kts | 54° |
| 2026-04-17 03:22 | 31.20860 | -49.63277 | 39273 ft | 458 kts | 54° |
| 2026-04-17 03:22 | 31.24375 | -49.57050 | 39272 ft | 458 kts | 54° |
| 2026-04-17 03:23 | 31.27887 | -49.50820 | 39274 ft | 458 kts | 54° |
| 2026-04-17 03:23 | 31.31387 | -49.44602 | 39273 ft | 459 kts | 54° |
| 2026-04-17 03:24 | 31.34894 | -49.38361 | 39272 ft | 458 kts | 54° |
| 2026-04-17 03:24 | 31.38367 | -49.32170 | 39270 ft | 457 kts | 54° |
| 2026-04-17 03:25 | 31.41857 | -49.25939 | 39271 ft | 458 kts | 54° |
| 2026-04-17 03:25 | 31.45348 | -49.19697 | 39272 ft | 458 kts | 54° |
| 2026-04-17 03:26 | 31.48831 | -49.13459 | 39271 ft | 457 kts | 54° |
| 2026-04-17 03:26 | 31.52314 | -49.07210 | 39270 ft | 457 kts | 54° |
| 2026-04-17 03:27 | 31.55793 | -49.00959 | 39274 ft | 458 kts | 54° |
| 2026-04-17 03:27 | 31.59261 | -48.94717 | 39271 ft | 456 kts | 54° |
| 2026-04-17 03:28 | 31.62709 | -48.88501 | 39271 ft | 456 kts | 54° |
| 2026-04-17 03:28 | 31.66163 | -48.82264 | 39270 ft | 455 kts | 54° |
| 2026-04-17 03:29 | 31.69607 | -48.76036 | 39271 ft | 454 kts | 54° |
| 2026-04-17 03:29 | 31.73020 | -48.69853 | 39268 ft | 453 kts | 54° |
| 2026-04-17 03:30 | 31.76452 | -48.63627 | 39272 ft | 453 kts | 54° |
| 2026-04-17 03:30 | 31.79854 | -48.57444 | 39276 ft | 452 kts | 54° |
| 2026-04-17 03:31 | 31.83261 | -48.51241 | 39269 ft | 450 kts | 54° |
| 2026-04-17 03:31 | 31.86652 | -48.45059 | 39267 ft | 450 kts | 54° |
| 2026-04-17 03:32 | 31.90045 | -48.38864 | 39267 ft | 449 kts | 54° |
| 2026-04-17 03:32 | 31.93407 | -48.32714 | 39268 ft | 449 kts | 54° |
| 2026-04-17 03:33 | 31.96778 | -48.26537 | 39268 ft | 448 kts | 54° |
| 2026-04-17 03:33 | 32.00146 | -48.20356 | 39265 ft | 447 kts | 54° |
| 2026-04-17 03:34 | 32.03507 | -48.14180 | 39270 ft | 447 kts | 54° |
| 2026-04-17 03:34 | 32.06840 | -48.08043 | 39266 ft | 446 kts | 54° |
| 2026-04-17 03:35 | 32.10188 | -48.01869 | 39268 ft | 446 kts | 54° |
| 2026-04-17 03:35 | 32.13531 | -47.95695 | 39269 ft | 446 kts | 54° |
| 2026-04-17 03:36 | 32.18515 | -47.86471 | 39265 ft | 445 kts | 54° |
| 2026-04-17 03:37 | 32.21842 | -47.80300 | 39265 ft | 445 kts | 54° |
| 2026-04-17 03:37 | 32.25166 | -47.74126 | 39258 ft | 445 kts | 54° |
| 2026-04-17 03:38 | 32.28482 | -47.67956 | 39260 ft | 445 kts | 54° |
| 2026-04-17 03:38 | 32.31797 | -47.61779 | 39259 ft | 444 kts | 54° |
| 2026-04-17 03:39 | 32.35104 | -47.55606 | 39267 ft | 444 kts | 54° |
| 2026-04-17 03:39 | 32.38388 | -47.49466 | 39266 ft | 444 kts | 54° |
| 2026-04-17 03:40 | 32.41694 | -47.43274 | 39256 ft | 444 kts | 54° |
| 2026-04-17 03:40 | 32.44999 | -47.37075 | 39259 ft | 444 kts | 54° |
| 2026-04-17 03:41 | 32.48296 | -47.30879 | 39257 ft | 444 kts | 54° |
| 2026-04-17 03:41 | 32.51566 | -47.24723 | 39257 ft | 444 kts | 54° |
| 2026-04-17 03:42 | 32.54849 | -47.18533 | 39259 ft | 444 kts | 54° |
| 2026-04-17 03:42 | 32.58135 | -47.12328 | 39260 ft | 444 kts | 54° |
| 2026-04-17 03:43 | 32.61410 | -47.06133 | 39261 ft | 443 kts | 54° |
| 2026-04-17 03:43 | 32.64690 | -46.99920 | 39257 ft | 444 kts | 54° |
| 2026-04-17 03:44 | 32.67938 | -46.93755 | 39257 ft | 443 kts | 54° |
| 2026-04-17 03:44 | 32.71207 | -46.87541 | 39260 ft | 443 kts | 54° |
| 2026-04-17 03:45 | 32.74474 | -46.81320 | 39257 ft | 443 kts | 53° |
| 2026-04-17 03:45 | 32.77738 | -46.75095 | 39252 ft | 444 kts | 53° |
| 2026-04-17 03:46 | 32.80981 | -46.68899 | 39254 ft | 444 kts | 53° |
| 2026-04-17 03:46 | 32.84247 | -46.62648 | 39255 ft | 443 kts | 53° |
| 2026-04-17 03:47 | 32.87497 | -46.56417 | 39250 ft | 443 kts | 53° |
| 2026-04-17 03:47 | 32.90726 | -46.50217 | 39249 ft | 443 kts | 53° |
| 2026-04-17 03:48 | 32.93971 | -46.43976 | 39252 ft | 443 kts | 53° |
| 2026-04-17 03:48 | 32.97211 | -46.37732 | 39249 ft | 442 kts | 53° |
| 2026-04-17 03:49 | 33.00452 | -46.31479 | 39249 ft | 442 kts | 53° |
| 2026-04-17 03:49 | 33.03664 | -46.25269 | 39257 ft | 442 kts | 53° |
| 2026-04-17 03:50 | 33.06893 | -46.19015 | 39252 ft | 442 kts | 52° |
| 2026-04-17 03:50 | 33.10122 | -46.12752 | 39249 ft | 442 kts | 52° |
| 2026-04-17 03:51 | 33.13341 | -46.06498 | 39247 ft | 442 kts | 52° |
| 2026-04-17 03:51 | 33.16540 | -46.00270 | 39247 ft | 443 kts | 52° |
| 2026-04-17 03:52 | 33.19760 | -45.93993 | 39242 ft | 443 kts | 52° |
| 2026-04-17 03:52 | 33.22983 | -45.87698 | 39243 ft | 442 kts | 52° |
| 2026-04-17 03:53 | 33.26175 | -45.81453 | 39249 ft | 443 kts | 52° |
| 2026-04-17 03:53 | 33.29396 | -45.75142 | 39247 ft | 444 kts | 52° |
| 2026-04-17 03:54 | 33.32617 | -45.68817 | 39243 ft | 444 kts | 52° |
| 2026-04-17 03:54 | 33.35806 | -45.62545 | 39241 ft | 444 kts | 52° |
| 2026-04-17 03:55 | 33.39022 | -45.56212 | 39243 ft | 445 kts | 52° |
| 2026-04-17 03:55 | 33.42242 | -45.49858 | 39243 ft | 445 kts | 52° |
| 2026-04-17 03:56 | 33.45434 | -45.43546 | 39238 ft | 445 kts | 52° |
| 2026-04-17 03:56 | 33.48642 | -45.37193 | 39240 ft | 445 kts | 52° |
| 2026-04-17 03:57 | 33.51844 | -45.30841 | 39238 ft | 445 kts | 52° |
| 2026-04-17 03:57 | 33.55027 | -45.24515 | 39241 ft | 445 kts | 52° |
| 2026-04-17 03:58 | 33.58228 | -45.18145 | 39238 ft | 447 kts | 52° |
| 2026-04-17 03:58 | 33.61433 | -45.11752 | 39235 ft | 447 kts | 52° |
| 2026-04-17 03:59 | 33.64633 | -45.05359 | 39237 ft | 446 kts | 52° |
| 2026-04-17 03:59 | 33.67822 | -44.98977 | 39238 ft | 448 kts | 52° |
| 2026-04-17 04:00 | 33.71034 | -44.92538 | 39241 ft | 448 kts | 52° |
| 2026-04-17 04:00 | 33.74217 | -44.86143 | 39240 ft | 448 kts | 52° |
| 2026-04-17 04:01 | 33.77419 | -44.79700 | 39239 ft | 448 kts | 52° |
| 2026-04-17 04:01 | 33.80621 | -44.73247 | 39230 ft | 449 kts | 52° |
| 2026-04-17 04:02 | 33.83803 | -44.66822 | 39229 ft | 449 kts | 52° |
| 2026-04-17 04:02 | 33.87000 | -44.60354 | 39237 ft | 449 kts | 52° |
| 2026-04-17 04:03 | 33.90203 | -44.53861 | 39232 ft | 450 kts | 52° |
| 2026-04-17 04:03 | 33.93380 | -44.47412 | 39228 ft | 450 kts | 52° |
| 2026-04-17 04:04 | 33.96568 | -44.40927 | 39233 ft | 450 kts | 52° |
| 2026-04-17 04:04 | 33.99752 | -44.34438 | 39220 ft | 449 kts | 52° |
| 2026-04-17 04:05 | 34.02934 | -44.27943 | 39223 ft | 449 kts | 52° |
| 2026-04-17 04:05 | 34.06112 | -44.21443 | 39231 ft | 449 kts | 52° |
| 2026-04-17 04:06 | 34.09279 | -44.14955 | 39215 ft | 449 kts | 52° |
| 2026-04-17 04:06 | 34.12442 | -44.08462 | 39227 ft | 449 kts | 52° |
| 2026-04-17 04:07 | 34.15582 | -44.02006 | 39226 ft | 449 kts | 52° |
| 2026-04-17 04:07 | 34.18736 | -43.95508 | 39214 ft | 448 kts | 52° |
| 2026-04-17 04:08 | 34.21890 | -43.89000 | 39214 ft | 448 kts | 52° |
| 2026-04-17 04:08 | 34.25045 | -43.82475 | 39225 ft | 448 kts | 52° |
| 2026-04-17 04:09 | 34.28172 | -43.75997 | 39212 ft | 448 kts | 52° |
| 2026-04-17 04:09 | 34.31315 | -43.69475 | 39209 ft | 448 kts | 52° |
| 2026-04-17 04:10 | 34.33922 | -43.64055 | 39208 ft | 448 kts | 52° |
| 2026-04-17 04:10 | 34.37062 | -43.57518 | 39201 ft | 448 kts | 52° |
| 2026-04-17 04:11 | 34.40196 | -43.50981 | 39200 ft | 449 kts | 52° |
| 2026-04-17 04:11 | 34.43310 | -43.44471 | 39201 ft | 449 kts | 52° |
| 2026-04-17 04:12 | 34.46444 | -43.37910 | 39196 ft | 450 kts | 52° |
| 2026-04-17 04:12 | 34.49589 | -43.31315 | 39194 ft | 451 kts | 52° |
| 2026-04-17 04:13 | 34.52724 | -43.24724 | 39191 ft | 451 kts | 52° |
| 2026-04-17 04:13 | 34.55840 | -43.18160 | 39192 ft | 451 kts | 52° |
| 2026-04-17 04:14 | 34.58971 | -43.11554 | 39193 ft | 451 kts | 52° |
| 2026-04-17 04:14 | 34.62099 | -43.04942 | 39192 ft | 451 kts | 52° |
| 2026-04-17 04:15 | 34.65228 | -42.98317 | 39195 ft | 452 kts | 52° |
| 2026-04-17 04:15 | 34.68342 | -42.91713 | 39195 ft | 453 kts | 52° |
| 2026-04-17 04:16 | 34.71477 | -42.85047 | 39187 ft | 454 kts | 52° |
| 2026-04-17 04:16 | 34.74610 | -42.78373 | 39190 ft | 454 kts | 52° |
| 2026-04-17 04:17 | 34.77730 | -42.71716 | 39191 ft | 456 kts | 52° |
| 2026-04-17 04:17 | 34.80877 | -42.64987 | 39177 ft | 456 kts | 52° |
| 2026-04-17 04:18 | 34.84015 | -42.58264 | 39180 ft | 457 kts | 52° |
| 2026-04-17 04:18 | 34.87160 | -42.51514 | 39179 ft | 458 kts | 52° |
| 2026-04-17 04:19 | 34.90300 | -42.44760 | 39177 ft | 458 kts | 52° |
| 2026-04-17 04:19 | 34.93420 | -42.38036 | 39180 ft | 458 kts | 52° |
| 2026-04-17 04:20 | 34.96558 | -42.31261 | 39176 ft | 459 kts | 52° |
| 2026-04-17 04:20 | 34.99697 | -42.24470 | 39176 ft | 459 kts | 52° |
| 2026-04-17 04:21 | 35.02836 | -42.17667 | 39187 ft | 460 kts | 52° |
| 2026-04-17 04:21 | 35.05961 | -42.10881 | 39172 ft | 462 kts | 52° |
| 2026-04-17 04:22 | 35.09108 | -42.04034 | 39175 ft | 462 kts | 53° |
| 2026-04-17 04:22 | 35.12252 | -41.97175 | 39177 ft | 462 kts | 53° |
| 2026-04-17 04:23 | 35.15397 | -41.90304 | 39166 ft | 463 kts | 53° |
| 2026-04-17 04:23 | 35.18518 | -41.83471 | 39165 ft | 463 kts | 53° |
| 2026-04-17 04:24 | 35.21654 | -41.76591 | 39173 ft | 463 kts | 53° |
| 2026-04-17 04:24 | 35.24761 | -41.69758 | 39162 ft | 461 kts | 53° |
| 2026-04-17 04:25 | 35.27879 | -41.62890 | 39162 ft | 461 kts | 53° |
| 2026-04-17 04:25 | 35.30997 | -41.56010 | 39172 ft | 461 kts | 53° |
| 2026-04-17 04:26 | 35.34103 | -41.49141 | 39170 ft | 461 kts | 53° |
| 2026-04-17 04:26 | 35.37189 | -41.42305 | 39154 ft | 461 kts | 53° |
| 2026-04-17 04:27 | 35.40285 | -41.35430 | 39154 ft | 461 kts | 53° |
| 2026-04-17 04:27 | 35.43392 | -41.28518 | 39151 ft | 460 kts | 53° |
| 2026-04-17 04:28 | 35.46462 | -41.21673 | 39152 ft | 460 kts | 53° |
| 2026-04-17 04:28 | 35.49547 | -41.14783 | 39148 ft | 460 kts | 53° |
| 2026-04-17 04:29 | 35.52629 | -41.07884 | 39148 ft | 460 kts | 53° |
| 2026-04-17 04:29 | 35.55690 | -41.01018 | 39150 ft | 460 kts | 53° |
| 2026-04-17 04:30 | 35.58762 | -40.94113 | 39146 ft | 460 kts | 53° |
| 2026-04-17 04:30 | 35.61833 | -40.87197 | 39148 ft | 461 kts | 53° |
| 2026-04-17 04:31 | 35.64907 | -40.80262 | 39142 ft | 463 kts | 53° |
| 2026-04-17 04:31 | 35.67987 | -40.73295 | 39138 ft | 463 kts | 53° |
| 2026-04-17 04:32 | 35.71065 | -40.66318 | 39134 ft | 463 kts | 53° |
| 2026-04-17 04:32 | 35.74121 | -40.59378 | 39145 ft | 463 kts | 53° |
| 2026-04-17 04:33 | 35.77197 | -40.52379 | 39142 ft | 464 kts | 53° |
| 2026-04-17 04:33 | 35.80241 | -40.45436 | 39137 ft | 464 kts | 53° |
| 2026-04-17 04:34 | 35.84848 | -40.34905 | 39130 ft | 465 kts | 53° |
| 2026-04-17 04:34 | 35.87917 | -40.27869 | 39126 ft | 465 kts | 53° |
| 2026-04-17 04:35 | 35.90980 | -40.20830 | 39133 ft | 466 kts | 54° |
| 2026-04-17 04:35 | 35.94026 | -40.13819 | 39123 ft | 466 kts | 54° |
| 2026-04-17 04:36 | 35.97095 | -40.06740 | 39124 ft | 466 kts | 54° |
| 2026-04-17 04:36 | 36.00259 | -39.99779 | 39123 ft | 460 kts | 48° |
| 2026-04-17 04:37 | 36.03860 | -39.93306 | 39116 ft | 459 kts | 47° |
| 2026-04-17 04:37 | 36.07574 | -39.86869 | 39116 ft | 459 kts | 46° |
| 2026-04-17 04:38 | 36.11300 | -39.80447 | 39138 ft | 459 kts | 46° |
| 2026-04-17 04:38 | 36.14992 | -39.74055 | 39108 ft | 460 kts | 46° |
| 2026-04-17 04:39 | 36.18711 | -39.67591 | 39108 ft | 460 kts | 47° |
| 2026-04-17 04:39 | 36.22424 | -39.61115 | 39107 ft | 460 kts | 47° |
| 2026-04-17 04:40 | 36.26137 | -39.54629 | 39107 ft | 461 kts | 47° |
| 2026-04-17 04:40 | 36.29853 | -39.48128 | 39107 ft | 462 kts | 47° |
| 2026-04-17 04:41 | 36.33543 | -39.41658 | 39098 ft | 462 kts | 47° |
| 2026-04-17 04:41 | 36.37254 | -39.35138 | 39116 ft | 462 kts | 47° |
| 2026-04-17 04:42 | 36.40970 | -39.28600 | 39097 ft | 464 kts | 47° |
| 2026-04-17 04:42 | 36.44692 | -39.22039 | 39095 ft | 464 kts | 47° |
| 2026-04-17 04:43 | 36.48389 | -39.15506 | 39094 ft | 465 kts | 47° |
| 2026-04-17 04:43 | 36.52108 | -39.08923 | 39090 ft | 466 kts | 47° |
| 2026-04-17 04:44 | 36.55846 | -39.02296 | 39089 ft | 467 kts | 47° |
| 2026-04-17 04:44 | 36.59574 | -38.95671 | 39086 ft | 467 kts | 47° |
| 2026-04-17 04:45 | 36.63295 | -38.89044 | 39083 ft | 467 kts | 47° |
| 2026-04-17 04:45 | 36.66994 | -38.82445 | 39080 ft | 467 kts | 47° |
| 2026-04-17 04:46 | 36.70718 | -38.75789 | 39080 ft | 467 kts | 47° |
| 2026-04-17 04:46 | 36.74434 | -38.69134 | 39080 ft | 467 kts | 47° |
| 2026-04-17 04:47 | 36.78151 | -38.62466 | 39079 ft | 468 kts | 48° |
| 2026-04-17 04:47 | 36.81859 | -38.55802 | 39075 ft | 470 kts | 48° |
| 2026-04-17 04:48 | 36.85587 | -38.49086 | 39075 ft | 470 kts | 48° |
| 2026-04-17 04:48 | 36.89317 | -38.42351 | 39094 ft | 470 kts | 48° |
| 2026-04-17 04:49 | 36.93028 | -38.35640 | 39074 ft | 472 kts | 48° |
| 2026-04-17 04:49 | 36.96767 | -38.28864 | 39071 ft | 473 kts | 49° |
| 2026-04-17 04:50 | 37.00505 | -38.22075 | 39072 ft | 473 kts | 49° |
| 2026-04-17 04:50 | 37.04235 | -38.15287 | 39075 ft | 474 kts | 49° |
| 2026-04-17 04:51 | 37.07954 | -38.08508 | 39063 ft | 475 kts | 49° |
| 2026-04-17 04:51 | 37.11706 | -38.01654 | 39064 ft | 476 kts | 49° |
| 2026-04-17 04:52 | 37.15432 | -37.94831 | 39075 ft | 477 kts | 49° |
| 2026-04-17 04:52 | 37.19185 | -37.87947 | 39070 ft | 478 kts | 49° |
| 2026-04-17 04:53 | 37.22937 | -37.81050 | 39070 ft | 478 kts | 49° |
| 2026-04-17 04:55 | 37.37908 | -37.53386 | 39083 ft | 480 kts | 50° |
| 2026-04-17 04:55 | 37.41650 | -37.46434 | 39108 ft | 480 kts | 50° |
| 2026-04-17 04:56 | 37.45386 | -37.39481 | 39094 ft | 479 kts | 50° |
| 2026-04-17 04:56 | 37.49113 | -37.32527 | 39102 ft | 479 kts | 50° |
| 2026-04-17 04:57 | 37.52820 | -37.25599 | 39099 ft | 479 kts | 50° |
| 2026-04-17 04:57 | 37.56541 | -37.18631 | 39101 ft | 478 kts | 50° |
| 2026-04-17 04:58 | 37.60246 | -37.11675 | 39107 ft | 477 kts | 50° |
| 2026-04-17 04:58 | 37.63926 | -37.04753 | 39120 ft | 477 kts | 50° |
| 2026-04-17 04:59 | 37.67629 | -36.97776 | 39120 ft | 477 kts | 50° |
| 2026-04-17 04:59 | 37.71304 | -36.90835 | 39122 ft | 477 kts | 49° |
| 2026-04-17 05:00 | 37.74372 | -36.85029 | 39125 ft | 478 kts | 49° |
| 2026-04-17 05:00 | 37.78065 | -36.78027 | 39127 ft | 478 kts | 49° |
| 2026-04-17 05:01 | 37.81750 | -36.71024 | 39129 ft | 478 kts | 49° |
| 2026-04-17 05:01 | 37.85435 | -36.64009 | 39133 ft | 479 kts | 49° |
| 2026-04-17 05:02 | 37.89125 | -36.56968 | 39132 ft | 479 kts | 49° |
| 2026-04-17 05:02 | 37.92785 | -36.49968 | 39135 ft | 479 kts | 49° |
| 2026-04-17 05:03 | 37.96468 | -36.42908 | 39137 ft | 479 kts | 49° |
| 2026-04-17 05:03 | 38.00144 | -36.35849 | 39137 ft | 480 kts | 49° |
| 2026-04-17 05:04 | 38.03818 | -36.28778 | 39137 ft | 480 kts | 49° |
| 2026-04-17 05:04 | 38.07488 | -36.21700 | 39142 ft | 480 kts | 50° |
| 2026-04-17 05:05 | 38.11138 | -36.14645 | 39146 ft | 481 kts | 50° |
| 2026-04-17 05:05 | 38.14806 | -36.07539 | 39146 ft | 481 kts | 50° |
| 2026-04-17 05:06 | 38.18480 | -36.00407 | 39160 ft | 481 kts | 50° |
| 2026-04-17 05:06 | 38.22149 | -35.93269 | 39149 ft | 482 kts | 50° |
| 2026-04-17 05:07 | 38.25797 | -35.86156 | 39150 ft | 482 kts | 50° |
| 2026-04-17 05:07 | 38.29460 | -35.78996 | 39162 ft | 482 kts | 50° |
| 2026-04-17 05:08 | 38.33124 | -35.71822 | 39157 ft | 484 kts | 50° |
| 2026-04-17 05:08 | 38.36764 | -35.64678 | 39149 ft | 484 kts | 51° |
| 2026-04-17 05:09 | 38.40432 | -35.57462 | 39144 ft | 484 kts | 51° |
| 2026-04-17 05:09 | 38.44093 | -35.50243 | 39139 ft | 484 kts | 51° |
| 2026-04-17 05:10 | 38.47752 | -35.43015 | 39135 ft | 485 kts | 51° |
| 2026-04-17 05:10 | 38.51388 | -35.35814 | 39147 ft | 485 kts | 51° |
| 2026-04-17 05:11 | 38.55046 | -35.28554 | 39151 ft | 485 kts | 51° |
| 2026-04-17 05:11 | 38.58696 | -35.21293 | 39141 ft | 485 kts | 51° |
| 2026-04-17 05:12 | 38.62319 | -35.14070 | 39145 ft | 485 kts | 51° |
| 2026-04-17 05:12 | 38.65961 | -35.06793 | 39146 ft | 485 kts | 51° |
| 2026-04-17 05:13 | 38.69597 | -34.99512 | 39147 ft | 485 kts | 52° |
| 2026-04-17 05:13 | 38.73230 | -34.92220 | 39149 ft | 486 kts | 52° |
| 2026-04-17 05:14 | 38.76840 | -34.84958 | 39148 ft | 486 kts | 52° |
| 2026-04-17 05:14 | 38.80476 | -34.77626 | 39152 ft | 486 kts | 52° |
| 2026-04-17 05:15 | 38.84104 | -34.70295 | 39159 ft | 486 kts | 52° |
| 2026-04-17 05:15 | 38.87704 | -34.63004 | 39155 ft | 486 kts | 52° |
| 2026-04-17 05:16 | 38.91324 | -34.55654 | 39158 ft | 487 kts | 52° |
| 2026-04-17 05:16 | 38.94946 | -34.48286 | 39160 ft | 487 kts | 52° |
| 2026-04-17 05:17 | 38.98568 | -34.40900 | 39162 ft | 488 kts | 53° |
| 2026-04-17 05:17 | 39.02183 | -34.33509 | 39162 ft | 488 kts | 53° |
| 2026-04-17 05:18 | 39.05778 | -34.26143 | 39165 ft | 488 kts | 53° |
| 2026-04-17 05:18 | 39.09384 | -34.18737 | 39164 ft | 488 kts | 53° |
| 2026-04-17 05:19 | 39.12991 | -34.11312 | 39160 ft | 488 kts | 53° |
| 2026-04-17 05:19 | 39.16574 | -34.03921 | 39165 ft | 488 kts | 53° |
| 2026-04-17 05:20 | 39.20169 | -33.96486 | 39169 ft | 488 kts | 53° |
| 2026-04-17 05:20 | 39.23761 | -33.89041 | 39171 ft | 489 kts | 53° |
| 2026-04-17 05:21 | 39.27347 | -33.81589 | 39169 ft | 489 kts | 53° |
| 2026-04-17 05:21 | 39.30931 | -33.74124 | 39168 ft | 489 kts | 53° |
| 2026-04-17 05:22 | 39.34513 | -33.66648 | 39168 ft | 489 kts | 54° |
| 2026-04-17 05:22 | 39.38067 | -33.59212 | 39171 ft | 489 kts | 54° |
| 2026-04-17 05:23 | 39.41643 | -33.51711 | 39168 ft | 489 kts | 54° |
| 2026-04-17 05:23 | 39.45211 | -33.44210 | 39180 ft | 489 kts | 54° |
| 2026-04-17 05:24 | 39.48776 | -33.36698 | 39173 ft | 490 kts | 54° |
| 2026-04-17 05:24 | 39.52345 | -33.29159 | 39176 ft | 491 kts | 54° |
| 2026-04-17 05:25 | 39.55896 | -33.21640 | 39176 ft | 491 kts | 54° |
| 2026-04-17 05:25 | 39.59466 | -33.14061 | 39187 ft | 491 kts | 54° |
| 2026-04-17 05:26 | 39.63003 | -33.06537 | 39178 ft | 492 kts | 54° |
| 2026-04-17 05:26 | 39.66569 | -32.98930 | 39178 ft | 492 kts | 54° |
| 2026-04-17 05:27 | 39.70126 | -32.91327 | 39178 ft | 492 kts | 54° |
| 2026-04-17 05:27 | 39.73656 | -32.83760 | 39180 ft | 492 kts | 54° |
| 2026-04-17 05:28 | 39.77209 | -32.76127 | 39181 ft | 493 kts | 55° |
| 2026-04-17 05:28 | 39.80756 | -32.68489 | 39183 ft | 493 kts | 55° |
| 2026-04-17 05:29 | 39.84301 | -32.60835 | 39197 ft | 493 kts | 55° |
| 2026-04-17 05:29 | 39.87820 | -32.53221 | 39185 ft | 494 kts | 55° |
| 2026-04-17 05:30 | 39.91357 | -32.45546 | 39184 ft | 494 kts | 55° |
| 2026-04-17 05:30 | 39.94898 | -32.37845 | 39184 ft | 494 kts | 55° |
| 2026-04-17 05:31 | 39.98431 | -32.30143 | 39185 ft | 495 kts | 55° |
| 2026-04-17 05:31 | 40.01958 | -32.22435 | 39186 ft | 495 kts | 55° |
| 2026-04-17 05:32 | 40.05463 | -32.14755 | 39186 ft | 495 kts | 55° |
| 2026-04-17 05:32 | 40.08992 | -32.07003 | 39200 ft | 495 kts | 56° |
| 2026-04-17 05:33 | 40.12496 | -31.99286 | 39189 ft | 496 kts | 56° |
| 2026-04-17 05:33 | 40.16011 | -31.91529 | 39189 ft | 496 kts | 56° |
| 2026-04-17 05:34 | 40.19532 | -31.83735 | 39189 ft | 496 kts | 56° |
| 2026-04-17 05:34 | 40.23048 | -31.75934 | 39191 ft | 497 kts | 56° |
| 2026-04-17 05:35 | 40.26531 | -31.68188 | 39189 ft | 497 kts | 56° |
| 2026-04-17 05:35 | 40.30034 | -31.60376 | 39189 ft | 497 kts | 56° |
| 2026-04-17 05:36 | 40.33529 | -31.52563 | 39189 ft | 497 kts | 56° |
| 2026-04-17 05:36 | 40.37019 | -31.44742 | 39191 ft | 497 kts | 56° |
| 2026-04-17 05:37 | 40.40509 | -31.36900 | 39192 ft | 497 kts | 56° |
| 2026-04-17 05:37 | 40.43971 | -31.29101 | 39191 ft | 497 kts | 56° |
| 2026-04-17 05:38 | 40.47449 | -31.21245 | 39191 ft | 497 kts | 56° |
| 2026-04-17 05:38 | 40.50922 | -31.13381 | 39189 ft | 497 kts | 56° |
| 2026-04-17 05:39 | 40.54392 | -31.05504 | 39188 ft | 497 kts | 57° |
| 2026-04-17 05:39 | 40.57839 | -30.97660 | 39189 ft | 497 kts | 57° |
| 2026-04-17 05:40 | 40.61299 | -30.89765 | 39192 ft | 498 kts | 57° |
| 2026-04-17 05:40 | 40.64754 | -30.81861 | 39190 ft | 498 kts | 57° |
| 2026-04-17 05:41 | 40.68204 | -30.73947 | 39197 ft | 497 kts | 57° |
| 2026-04-17 05:41 | 40.71642 | -30.66040 | 39192 ft | 496 kts | 57° |
| 2026-04-17 05:42 | 40.75049 | -30.58185 | 39187 ft | 496 kts | 57° |
| 2026-04-17 05:42 | 40.78475 | -30.50266 | 39190 ft | 496 kts | 57° |
| 2026-04-17 05:43 | 40.81894 | -30.42343 | 39199 ft | 496 kts | 57° |
| 2026-04-17 05:43 | 40.85305 | -30.34416 | 39195 ft | 497 kts | 57° |
| 2026-04-17 05:44 | 40.88711 | -30.26481 | 39189 ft | 497 kts | 57° |
| 2026-04-17 05:44 | 40.92095 | -30.18575 | 39192 ft | 497 kts | 57° |
| 2026-04-17 05:45 | 40.95495 | -30.10613 | 39194 ft | 497 kts | 57° |
| 2026-04-17 05:45 | 40.98893 | -30.02640 | 39192 ft | 497 kts | 57° |
| 2026-04-17 05:46 | 41.02840 | -29.95196 | 39190 ft | 493 kts | 49° |
| 2026-04-17 05:46 | 41.07022 | -29.87987 | 39193 ft | 493 kts | 49° |
| 2026-04-17 05:47 | 41.11225 | -29.80851 | 39192 ft | 493 kts | 49° |
| 2026-04-17 05:47 | 41.15453 | -29.73650 | 39191 ft | 494 kts | 49° |
| 2026-04-17 05:48 | 41.19643 | -29.66473 | 39193 ft | 494 kts | 49° |
| 2026-04-17 05:48 | 41.23845 | -29.59246 | 39192 ft | 494 kts | 49° |
| 2026-04-17 05:49 | 41.27329 | -29.53241 | 39192 ft | 494 kts | 49° |
| 2026-04-17 05:49 | 41.32217 | -29.44797 | 39193 ft | 494 kts | 49° |
| 2026-04-17 05:50 | 41.35699 | -29.38768 | 39191 ft | 494 kts | 49° |
| 2026-04-17 05:50 | 41.39884 | -29.31505 | 39194 ft | 494 kts | 49° |
| 2026-04-17 05:51 | 41.44066 | -29.24231 | 39206 ft | 494 kts | 49° |
| 2026-04-17 05:51 | 41.48252 | -29.16933 | 39194 ft | 494 kts | 50° |
| 2026-04-17 05:52 | 41.52403 | -29.09679 | 39194 ft | 495 kts | 50° |
| 2026-04-17 05:52 | 41.56576 | -29.02368 | 39194 ft | 494 kts | 50° |
| 2026-04-17 05:53 | 41.60744 | -28.95048 | 39188 ft | 495 kts | 50° |
| 2026-04-17 05:53 | 41.64913 | -28.87709 | 39203 ft | 495 kts | 50° |
| 2026-04-17 05:54 | 41.69053 | -28.80404 | 39184 ft | 495 kts | 50° |
| 2026-04-17 05:54 | 41.73207 | -28.73055 | 39200 ft | 495 kts | 50° |
| 2026-04-17 05:55 | 41.77365 | -28.65683 | 39201 ft | 495 kts | 50° |
| 2026-04-17 05:55 | 41.81510 | -28.58316 | 39189 ft | 495 kts | 50° |
| 2026-04-17 05:56 | 41.85632 | -28.50972 | 39194 ft | 495 kts | 50° |
| 2026-04-17 05:56 | 41.89778 | -28.43566 | 39195 ft | 495 kts | 50° |
| 2026-04-17 05:57 | 41.93888 | -28.36207 | 39195 ft | 495 kts | 50° |
| 2026-04-17 05:57 | 41.98023 | -28.28786 | 39195 ft | 495 kts | 50° |
| 2026-04-17 05:58 | 42.02143 | -28.21372 | 39199 ft | 495 kts | 50° |
| 2026-04-17 05:59 | 42.08311 | -28.10240 | 39193 ft | 496 kts | 51° |
| 2026-04-17 05:59 | 42.12427 | -28.02789 | 39196 ft | 496 kts | 51° |
| 2026-04-17 06:00 | 42.16545 | -27.95316 | 39196 ft | 496 kts | 51° |
| 2026-04-17 06:00 | 42.20657 | -27.87835 | 39199 ft | 496 kts | 51° |
| 2026-04-17 06:01 | 42.24739 | -27.80390 | 39197 ft | 496 kts | 51° |
| 2026-04-17 06:01 | 42.28842 | -27.72887 | 39204 ft | 496 kts | 51° |
| 2026-04-17 06:02 | 42.32938 | -27.65380 | 39195 ft | 496 kts | 51° |
| 2026-04-17 06:02 | 42.37023 | -27.57873 | 39196 ft | 495 kts | 51° |
| 2026-04-17 06:03 | 42.41104 | -27.50356 | 39200 ft | 496 kts | 51° |
| 2026-04-17 06:03 | 42.45161 | -27.42863 | 39192 ft | 496 kts | 51° |
| 2026-04-17 06:04 | 42.49233 | -27.35324 | 39201 ft | 496 kts | 51° |
| 2026-04-17 06:04 | 42.53303 | -27.27771 | 39194 ft | 496 kts | 52° |
| 2026-04-17 06:05 | 42.57367 | -27.20209 | 39201 ft | 496 kts | 52° |
| 2026-04-17 06:05 | 42.61436 | -27.12618 | 39192 ft | 496 kts | 52° |
| 2026-04-17 06:06 | 42.65474 | -27.05066 | 39199 ft | 496 kts | 52° |
| 2026-04-17 06:06 | 42.69536 | -26.97451 | 39195 ft | 497 kts | 52° |
| 2026-04-17 06:07 | 42.73564 | -26.89878 | 39197 ft | 497 kts | 52° |
| 2026-04-17 06:07 | 42.77615 | -26.82244 | 39197 ft | 497 kts | 52° |
| 2026-04-17 06:08 | 42.81664 | -26.74593 | 39197 ft | 497 kts | 52° |
| 2026-04-17 06:08 | 42.85679 | -26.66989 | 39198 ft | 497 kts | 52° |
| 2026-04-17 06:09 | 42.89719 | -26.59316 | 39197 ft | 497 kts | 52° |
| 2026-04-17 06:09 | 42.93749 | -26.51643 | 39203 ft | 497 kts | 52° |
| 2026-04-17 06:10 | 42.97781 | -26.43948 | 39197 ft | 498 kts | 52° |
| 2026-04-17 06:10 | 43.01787 | -26.36281 | 39197 ft | 498 kts | 52° |
| 2026-04-17 06:11 | 43.05810 | -26.28561 | 39196 ft | 498 kts | 52° |
| 2026-04-17 06:11 | 43.09805 | -26.20874 | 39197 ft | 498 kts | 52° |
| 2026-04-17 06:12 | 43.13817 | -26.13137 | 39194 ft | 497 kts | 53° |
| 2026-04-17 06:12 | 43.17828 | -26.05381 | 39195 ft | 498 kts | 53° |
| 2026-04-17 06:13 | 43.21800 | -25.97680 | 39194 ft | 498 kts | 53° |
| 2026-04-17 06:13 | 43.25794 | -25.89914 | 39195 ft | 498 kts | 53° |
| 2026-04-17 06:14 | 43.29783 | -25.82139 | 39197 ft | 498 kts | 53° |
| 2026-04-17 06:14 | 43.33778 | -25.74333 | 39197 ft | 498 kts | 53° |
| 2026-04-17 06:15 | 43.37764 | -25.66522 | 39196 ft | 499 kts | 53° |
| 2026-04-17 06:15 | 43.41726 | -25.58739 | 39206 ft | 499 kts | 53° |
| 2026-04-17 06:16 | 43.45698 | -25.50913 | 39196 ft | 499 kts | 53° |
| 2026-04-17 06:16 | 43.49672 | -25.43064 | 39195 ft | 499 kts | 53° |
| 2026-04-17 06:17 | 43.53617 | -25.35253 | 39195 ft | 499 kts | 53° |
| 2026-04-17 06:17 | 43.57583 | -25.27378 | 39195 ft | 499 kts | 53° |
| 2026-04-17 06:18 | 43.61536 | -25.19507 | 39195 ft | 499 kts | 53° |
| 2026-04-17 06:18 | 43.65491 | -25.11612 | 39194 ft | 500 kts | 54° |
| 2026-04-17 06:19 | 43.69439 | -25.03710 | 39195 ft | 500 kts | 54° |
| 2026-04-17 06:19 | 43.73362 | -24.95837 | 39194 ft | 500 kts | 54° |
| 2026-04-17 06:20 | 43.77305 | -24.87901 | 39191 ft | 500 kts | 54° |
| 2026-04-17 06:20 | 43.81247 | -24.79947 | 39194 ft | 501 kts | 54° |
| 2026-04-17 06:21 | 43.85187 | -24.71973 | 39192 ft | 501 kts | 54° |
| 2026-04-17 06:21 | 43.89098 | -24.64038 | 39192 ft | 501 kts | 54° |
| 2026-04-17 06:22 | 43.93027 | -24.56044 | 39192 ft | 501 kts | 54° |
| 2026-04-17 06:22 | 43.96956 | -24.48029 | 39192 ft | 501 kts | 54° |
| 2026-04-17 06:23 | 44.00879 | -24.40004 | 39189 ft | 501 kts | 54° |
| 2026-04-17 06:23 | 44.04791 | -24.31979 | 39190 ft | 502 kts | 54° |
| 2026-04-17 06:24 | 44.08687 | -24.23964 | 39189 ft | 502 kts | 54° |
| 2026-04-17 06:24 | 44.12600 | -24.15893 | 39189 ft | 502 kts | 54° |
| 2026-04-17 06:25 | 44.16490 | -24.07847 | 39189 ft | 502 kts | 54° |
| 2026-04-17 06:25 | 44.20397 | -23.99742 | 39189 ft | 503 kts | 55° |
| 2026-04-17 06:26 | 44.24277 | -23.91672 | 39189 ft | 503 kts | 55° |
| 2026-04-17 06:26 | 44.28172 | -23.83548 | 39189 ft | 503 kts | 55° |
| 2026-04-17 06:27 | 44.32064 | -23.75408 | 39190 ft | 504 kts | 55° |
| 2026-04-17 06:27 | 44.35961 | -23.67232 | 39186 ft | 504 kts | 55° |
| 2026-04-17 06:28 | 44.39820 | -23.59115 | 39187 ft | 505 kts | 55° |
| 2026-04-17 06:28 | 44.43701 | -23.50929 | 39187 ft | 504 kts | 55° |
| 2026-04-17 06:29 | 44.47584 | -23.42713 | 39186 ft | 504 kts | 55° |
| 2026-04-17 06:29 | 44.51457 | -23.34498 | 39187 ft | 504 kts | 55° |
| 2026-04-17 06:30 | 44.55295 | -23.26333 | 39190 ft | 504 kts | 55° |
| 2026-04-17 06:30 | 44.59157 | -23.18093 | 39189 ft | 505 kts | 55° |
| 2026-04-17 06:31 | 44.63016 | -23.09835 | 39188 ft | 506 kts | 56° |
| 2026-04-17 06:31 | 44.66851 | -23.01606 | 39187 ft | 506 kts | 56° |
| 2026-04-17 06:32 | 44.70702 | -22.93317 | 39187 ft | 506 kts | 56° |
| 2026-04-17 06:32 | 44.74549 | -22.85015 | 39184 ft | 506 kts | 56° |
| 2026-04-17 06:33 | 44.78391 | -22.76698 | 39184 ft | 507 kts | 56° |
| 2026-04-17 06:33 | 44.82198 | -22.68434 | 39184 ft | 507 kts | 56° |
| 2026-04-17 06:34 | 44.86027 | -22.60098 | 39183 ft | 507 kts | 56° |
| 2026-04-17 06:34 | 44.89862 | -22.51726 | 39184 ft | 508 kts | 56° |
| 2026-04-17 06:35 | 44.93695 | -22.43332 | 39187 ft | 508 kts | 56° |
| 2026-04-17 06:35 | 44.97497 | -22.34981 | 39183 ft | 508 kts | 56° |
| 2026-04-17 06:36 | 45.01314 | -22.26573 | 39182 ft | 508 kts | 56° |
| 2026-04-17 06:36 | 45.05130 | -22.18142 | 39178 ft | 509 kts | 56° |
| 2026-04-17 06:37 | 45.08940 | -22.09701 | 39178 ft | 509 kts | 56° |
| 2026-04-17 06:37 | 45.12721 | -22.01296 | 39175 ft | 509 kts | 56° |
| 2026-04-17 06:38 | 45.16521 | -21.92826 | 39179 ft | 510 kts | 56° |
| 2026-04-17 06:38 | 45.20328 | -21.84317 | 39178 ft | 510 kts | 56° |
| 2026-04-17 06:39 | 45.24122 | -21.75809 | 39179 ft | 510 kts | 56° |
| 2026-04-17 06:39 | 45.27911 | -21.67285 | 39179 ft | 510 kts | 57° |
| 2026-04-17 06:40 | 45.31672 | -21.58802 | 39167 ft | 511 kts | 57° |
| 2026-04-17 06:40 | 45.35454 | -21.50245 | 39174 ft | 511 kts | 57° |
| 2026-04-17 06:41 | 45.38595 | -21.43117 | 39166 ft | 511 kts | 57° |
| 2026-04-17 06:41 | 45.42363 | -21.34543 | 39177 ft | 511 kts | 57° |
| 2026-04-17 06:42 | 45.46139 | -21.25927 | 39167 ft | 511 kts | 57° |
| 2026-04-17 06:42 | 45.49886 | -21.17347 | 39177 ft | 512 kts | 57° |
| 2026-04-17 06:43 | 45.53645 | -21.08717 | 39168 ft | 512 kts | 57° |
| 2026-04-17 06:43 | 45.57398 | -21.00072 | 39168 ft | 512 kts | 57° |
| 2026-04-17 06:44 | 45.61148 | -20.91408 | 39168 ft | 513 kts | 57° |
| 2026-04-17 06:44 | 45.64896 | -20.82724 | 39166 ft | 513 kts | 57° |
| 2026-04-17 06:45 | 45.68607 | -20.74096 | 39174 ft | 513 kts | 57° |
| 2026-04-17 06:45 | 45.72348 | -20.65372 | 39164 ft | 513 kts | 57° |
| 2026-04-17 06:46 | 45.76054 | -20.56704 | 39162 ft | 513 kts | 57° |
| 2026-04-17 06:46 | 45.79769 | -20.47985 | 39162 ft | 513 kts | 57° |
| 2026-04-17 06:47 | 45.83489 | -20.39230 | 39158 ft | 513 kts | 58° |
| 2026-04-17 06:47 | 45.87181 | -20.30513 | 39167 ft | 513 kts | 58° |
| 2026-04-17 06:48 | 45.90881 | -20.21749 | 39156 ft | 513 kts | 58° |
| 2026-04-17 06:48 | 45.94574 | -20.12976 | 39148 ft | 513 kts | 58° |
| 2026-04-17 06:49 | 45.98267 | -20.04174 | 39153 ft | 514 kts | 58° |
| 2026-04-17 06:49 | 46.01987 | -19.95402 | 39155 ft | 514 kts | 57° |
| 2026-04-17 06:50 | 46.05769 | -19.86738 | 39160 ft | 514 kts | 57° |
| 2026-04-17 06:50 | 46.09578 | -19.78028 | 39146 ft | 514 kts | 57° |
| 2026-04-17 06:51 | 46.13380 | -19.69281 | 39155 ft | 514 kts | 57° |
| 2026-04-17 06:51 | 46.17169 | -19.60517 | 39146 ft | 514 kts | 57° |
| 2026-04-17 06:52 | 46.20922 | -19.51802 | 39148 ft | 514 kts | 57° |
| 2026-04-17 06:52 | 46.24694 | -19.43014 | 39148 ft | 514 kts | 57° |
| 2026-04-17 06:53 | 46.28463 | -19.34207 | 39146 ft | 515 kts | 57° |
| 2026-04-17 06:53 | 46.32221 | -19.25399 | 39144 ft | 515 kts | 57° |
| 2026-04-17 06:54 | 46.35976 | -19.16568 | 39136 ft | 514 kts | 57° |
| 2026-04-17 06:54 | 46.39709 | -19.07764 | 39138 ft | 515 kts | 57° |
| 2026-04-17 06:55 | 46.43450 | -18.98911 | 39146 ft | 515 kts | 57° |
| 2026-04-17 06:55 | 46.47193 | -18.90026 | 39140 ft | 515 kts | 58° |
| 2026-04-17 06:56 | 46.50919 | -18.81152 | 39134 ft | 515 kts | 58° |
| 2026-04-17 06:56 | 46.54623 | -18.72302 | 39134 ft | 516 kts | 58° |
| 2026-04-17 06:57 | 46.58349 | -18.63371 | 39133 ft | 516 kts | 58° |
| 2026-04-17 06:57 | 46.62065 | -18.54434 | 39126 ft | 516 kts | 58° |
| 2026-04-17 06:58 | 46.65747 | -18.45552 | 39127 ft | 516 kts | 58° |
| 2026-04-17 06:58 | 46.69453 | -18.36582 | 39130 ft | 516 kts | 58° |
| 2026-04-17 06:59 | 46.73147 | -18.27612 | 39128 ft | 516 kts | 58° |
| 2026-04-17 06:59 | 46.76833 | -18.18631 | 39139 ft | 516 kts | 58° |
| 2026-04-17 07:00 | 46.80493 | -18.09684 | 39119 ft | 516 kts | 58° |
| 2026-04-17 07:00 | 46.84172 | -18.00662 | 39125 ft | 517 kts | 58° |
| 2026-04-17 07:01 | 46.87843 | -17.91630 | 39121 ft | 517 kts | 59° |
| 2026-04-17 07:01 | 46.91508 | -17.82582 | 39116 ft | 516 kts | 59° |
| 2026-04-17 07:02 | 46.95163 | -17.73530 | 39117 ft | 517 kts | 59° |
| 2026-04-17 07:02 | 46.98813 | -17.64462 | 39117 ft | 517 kts | 59° |
| 2026-04-17 07:03 | 47.02434 | -17.55432 | 39115 ft | 517 kts | 59° |
| 2026-04-17 07:03 | 47.06074 | -17.46326 | 39105 ft | 517 kts | 59° |
| 2026-04-17 07:04 | 47.09714 | -17.37192 | 39110 ft | 517 kts | 59° |
| 2026-04-17 07:04 | 47.13318 | -17.28115 | 39114 ft | 517 kts | 59° |
| 2026-04-17 07:05 | 47.16938 | -17.18966 | 39108 ft | 517 kts | 59° |
| 2026-04-17 07:05 | 47.20551 | -17.09806 | 39102 ft | 517 kts | 59° |
| 2026-04-17 07:06 | 47.24128 | -17.00707 | 39101 ft | 517 kts | 59° |
| 2026-04-17 07:06 | 47.27727 | -16.91520 | 39102 ft | 517 kts | 60° |
| 2026-04-17 07:07 | 47.31318 | -16.82321 | 39104 ft | 517 kts | 60° |
| 2026-04-17 07:07 | 47.34902 | -16.73111 | 39097 ft | 517 kts | 60° |
| 2026-04-17 07:08 | 47.38479 | -16.63888 | 39100 ft | 517 kts | 60° |
| 2026-04-17 07:08 | 47.42045 | -16.54658 | 39098 ft | 517 kts | 60° |
| 2026-04-17 07:09 | 47.45582 | -16.45474 | 39086 ft | 517 kts | 60° |
| 2026-04-17 07:09 | 47.49141 | -16.36201 | 39093 ft | 518 kts | 60° |
| 2026-04-17 07:10 | 47.52694 | -16.26911 | 39090 ft | 518 kts | 60° |
| 2026-04-17 07:10 | 47.56216 | -16.17673 | 39089 ft | 518 kts | 60° |
| 2026-04-17 07:11 | 47.59752 | -16.08362 | 39076 ft | 518 kts | 61° |
| 2026-04-17 07:11 | 47.63285 | -15.99029 | 39077 ft | 519 kts | 61° |
| 2026-04-17 07:12 | 47.66810 | -15.89683 | 39082 ft | 519 kts | 61° |
| 2026-04-17 07:12 | 47.70328 | -15.80323 | 39079 ft | 519 kts | 61° |
| 2026-04-17 07:13 | 47.73813 | -15.71019 | 39080 ft | 519 kts | 62° |
| 2026-04-17 07:13 | 47.77334 | -15.61585 | 39078 ft | 520 kts | 62° |
| 2026-04-17 07:14 | 47.80837 | -15.52166 | 39075 ft | 520 kts | 62° |
| 2026-04-17 07:14 | 47.84313 | -15.42785 | 39075 ft | 520 kts | 62° |
| 2026-04-17 07:15 | 47.87803 | -15.33335 | 39064 ft | 521 kts | 62° |
| 2026-04-17 07:15 | 47.91297 | -15.23840 | 39067 ft | 523 kts | 62° |
| 2026-04-17 07:16 | 47.94790 | -15.14312 | 39068 ft | 523 kts | 62° |
| 2026-04-17 07:16 | 47.98269 | -15.04791 | 39064 ft | 523 kts | 62° |
| 2026-04-17 07:17 | 48.01582 | -14.95187 | 39065 ft | 523 kts | 66° |
| 2026-04-17 07:17 | 48.05960 | -14.80206 | 39068 ft | 524 kts | 69° |
| 2026-04-17 07:18 | 48.08841 | -14.70192 | 39068 ft | 524 kts | 68° |
| 2026-04-17 07:18 | 48.11735 | -14.60253 | 39069 ft | 524 kts | 68° |
| 2026-04-17 07:19 | 48.14666 | -14.50219 | 39067 ft | 526 kts | 68° |
| 2026-04-17 07:19 | 48.17592 | -14.40171 | 39070 ft | 526 kts | 68° |
| 2026-04-17 07:20 | 48.20486 | -14.30183 | 39060 ft | 525 kts | 68° |
| 2026-04-17 07:20 | 48.23385 | -14.20138 | 39055 ft | 525 kts | 68° |
| 2026-04-17 07:21 | 48.26278 | -14.10067 | 39064 ft | 525 kts | 68° |
| 2026-04-17 07:21 | 48.29167 | -13.99967 | 39064 ft | 526 kts | 69° |
| 2026-04-17 07:22 | 48.32042 | -13.89873 | 39063 ft | 526 kts | 69° |
| 2026-04-17 07:22 | 48.34912 | -13.79756 | 39056 ft | 526 kts | 69° |
| 2026-04-17 07:23 | 48.37756 | -13.69690 | 39056 ft | 526 kts | 69° |
| 2026-04-17 07:23 | 48.40616 | -13.59520 | 39055 ft | 526 kts | 69° |
| 2026-04-17 07:24 | 48.43462 | -13.49360 | 39056 ft | 526 kts | 69° |
| 2026-04-17 07:24 | 48.46298 | -13.39190 | 39056 ft | 526 kts | 69° |
| 2026-04-17 07:25 | 48.49109 | -13.29070 | 39050 ft | 526 kts | 69° |
| 2026-04-17 07:25 | 48.51927 | -13.18877 | 39051 ft | 526 kts | 69° |
| 2026-04-17 07:26 | 48.54737 | -13.08673 | 39040 ft | 526 kts | 69° |
| 2026-04-17 07:26 | 48.57541 | -12.98441 | 39061 ft | 526 kts | 70° |
| 2026-04-17 07:27 | 48.60331 | -12.88222 | 39051 ft | 526 kts | 70° |
| 2026-04-17 07:27 | 48.63097 | -12.78046 | 39050 ft | 526 kts | 70° |
| 2026-04-17 07:28 | 48.65866 | -12.67812 | 39034 ft | 526 kts | 70° |
| 2026-04-17 07:28 | 48.68631 | -12.57548 | 39048 ft | 526 kts | 70° |
| 2026-04-17 07:29 | 48.70920 | -12.49018 | 39048 ft | 526 kts | 70° |
| 2026-04-17 07:29 | 48.73668 | -12.38734 | 39048 ft | 526 kts | 70° |
| 2026-04-17 07:30 | 48.76393 | -12.28493 | 39032 ft | 526 kts | 70° |
| 2026-04-17 07:30 | 48.79123 | -12.18185 | 39042 ft | 526 kts | 71° |
| 2026-04-17 07:31 | 48.81864 | -12.07864 | 39049 ft | 527 kts | 68° |
| 2026-04-17 07:31 | 48.83602 | -12.03008 | 39045 ft | 529 kts | 57° |
| 2026-04-17 07:31 | 48.85891 | -11.98633 | 39043 ft | 528 kts | 45° |
| 2026-04-17 07:32 | 48.91550 | -11.91553 | 39063 ft | 527 kts | 34° |
| 2026-04-17 07:32 | 48.97526 | -11.85074 | 39039 ft | 527 kts | 33° |
| 2026-04-17 07:33 | 49.03384 | -11.78498 | 39034 ft | 528 kts | 42° |
| 2026-04-17 07:33 | 49.05899 | -11.74320 | 39032 ft | 528 kts | 54° |
| 2026-04-17 07:33 | 49.07948 | -11.69682 | 39036 ft | 527 kts | 59° |
| 2026-04-17 07:34 | 49.11676 | -11.60094 | 39037 ft | 528 kts | 62° |
| 2026-04-17 07:34 | 49.15256 | -11.50293 | 39029 ft | 528 kts | 63° |
| 2026-04-17 07:35 | 49.18833 | -11.40485 | 39052 ft | 528 kts | 62° |
| 2026-04-17 07:35 | 49.22431 | -11.30682 | 39034 ft | 527 kts | 62° |
| 2026-04-17 07:36 | 49.26004 | -11.20959 | 39029 ft | 527 kts | 62° |
| 2026-04-17 07:36 | 49.29599 | -11.11148 | 39024 ft | 527 kts | 63° |
| 2026-04-17 07:37 | 49.33184 | -11.01324 | 39032 ft | 527 kts | 63° |
| 2026-04-17 07:37 | 49.36733 | -10.91556 | 39029 ft | 527 kts | 63° |
| 2026-04-17 07:38 | 49.40302 | -10.81699 | 39029 ft | 527 kts | 63° |
| 2026-04-17 07:38 | 49.43856 | -10.71843 | 39024 ft | 527 kts | 63° |
| 2026-04-17 07:39 | 49.47405 | -10.61964 | 39029 ft | 527 kts | 63° |
| 2026-04-17 07:39 | 49.50940 | -10.52088 | 39028 ft | 527 kts | 63° |
| 2026-04-17 07:40 | 49.54449 | -10.42247 | 39028 ft | 526 kts | 63° |
| 2026-04-17 07:40 | 49.57959 | -10.32363 | 39022 ft | 526 kts | 63° |
| 2026-04-17 07:41 | 49.61473 | -10.22429 | 39026 ft | 526 kts | 64° |
| 2026-04-17 07:41 | 49.64972 | -10.12502 | 39026 ft | 526 kts | 64° |
| 2026-04-17 07:42 | 49.68441 | -10.02622 | 39026 ft | 526 kts | 64° |
| 2026-04-17 07:42 | 49.71927 | -9.92654 | 39026 ft | 526 kts | 64° |
| 2026-04-17 07:43 | 49.75384 | -9.82728 | 39024 ft | 526 kts | 64° |
| 2026-04-17 07:43 | 49.78855 | -9.72727 | 39042 ft | 526 kts | 64° |
| 2026-04-17 07:44 | 49.82311 | -9.62730 | 39026 ft | 526 kts | 64° |
| 2026-04-17 07:44 | 49.85732 | -9.52792 | 39023 ft | 525 kts | 64° |
| 2026-04-17 07:45 | 49.89161 | -9.42795 | 39026 ft | 525 kts | 64° |
| 2026-04-17 07:45 | 49.92590 | -9.32757 | 39026 ft | 525 kts | 64° |
| 2026-04-17 07:46 | 49.95986 | -9.22775 | 39026 ft | 525 kts | 64° |
| 2026-04-17 07:46 | 49.99392 | -9.12725 | 39008 ft | 525 kts | 65° |
| 2026-04-17 07:47 | 50.02793 | -9.02650 | 39020 ft | 526 kts | 65° |
| 2026-04-17 07:47 | 50.06182 | -8.92574 | 39025 ft | 526 kts | 65° |
| 2026-04-17 07:48 | 50.09546 | -8.82529 | 39020 ft | 526 kts | 65° |
| 2026-04-17 07:48 | 50.12916 | -8.72425 | 39020 ft | 525 kts | 65° |
| 2026-04-17 07:49 | 50.16276 | -8.62312 | 39025 ft | 525 kts | 65° |
| 2026-04-17 07:49 | 50.19626 | -8.52187 | 39025 ft | 525 kts | 65° |
| 2026-04-17 07:50 | 50.22972 | -8.42036 | 39022 ft | 525 kts | 65° |
| 2026-04-17 07:50 | 50.26309 | -8.31869 | 39020 ft | 525 kts | 65° |
| 2026-04-17 07:51 | 50.29615 | -8.21755 | 39021 ft | 525 kts | 65° |
| 2026-04-17 07:51 | 50.32925 | -8.11590 | 39017 ft | 524 kts | 65° |
| 2026-04-17 07:52 | 50.36184 | -8.01370 | 39016 ft | 522 kts | 70° |
| 2026-04-17 07:52 | 50.38666 | -7.90725 | 39033 ft | 520 kts | 74° |
| 2026-04-17 07:53 | 50.40955 | -7.79976 | 39015 ft | 519 kts | 75° |
| 2026-04-17 07:53 | 50.43173 | -7.69299 | 39023 ft | 518 kts | 76° |
| 2026-04-17 07:54 | 50.45407 | -7.58524 | 39017 ft | 518 kts | 76° |
| 2026-04-17 07:54 | 50.47639 | -7.47757 | 39018 ft | 518 kts | 76° |
| 2026-04-17 07:55 | 50.49860 | -7.37009 | 39015 ft | 517 kts | 76° |
| 2026-04-17 07:55 | 50.52054 | -7.26334 | 39023 ft | 516 kts | 76° |
| 2026-04-17 07:56 | 50.54257 | -7.15553 | 39026 ft | 516 kts | 76° |
| 2026-04-17 07:56 | 50.56445 | -7.04785 | 39027 ft | 516 kts | 76° |
| 2026-04-17 07:57 | 50.58623 | -6.94009 | 39014 ft | 516 kts | 76° |
| 2026-04-17 07:57 | 50.60774 | -6.83310 | 39025 ft | 516 kts | 76° |
| 2026-04-17 07:58 | 50.62929 | -6.72529 | 39026 ft | 515 kts | 76° |
| 2026-04-17 07:58 | 50.65072 | -6.61749 | 39029 ft | 515 kts | 76° |
| 2026-04-17 07:59 | 50.67205 | -6.50955 | 39022 ft | 515 kts | 76° |
| 2026-04-17 07:59 | 50.69331 | -6.40144 | 39034 ft | 516 kts | 76° |
| 2026-04-17 08:00 | 50.71431 | -6.29401 | 39039 ft | 516 kts | 76° |
| 2026-04-17 08:00 | 50.73538 | -6.18562 | 39035 ft | 516 kts | 76° |
| 2026-04-17 08:01 | 50.75635 | -6.07712 | 39017 ft | 516 kts | 76° |
| 2026-04-17 08:01 | 50.77720 | -5.96863 | 39032 ft | 516 kts | 76° |
| 2026-04-17 08:02 | 50.79792 | -5.86018 | 39039 ft | 516 kts | 76° |
| 2026-04-17 08:02 | 50.81856 | -5.75159 | 39039 ft | 515 kts | 76° |
| 2026-04-17 08:03 | 50.83909 | -5.64288 | 39038 ft | 515 kts | 76° |
| 2026-04-17 08:03 | 50.85937 | -5.53493 | 39044 ft | 514 kts | 76° |
| 2026-04-17 08:04 | 50.87963 | -5.42643 | 39056 ft | 513 kts | 76° |
| 2026-04-17 08:04 | 50.89974 | -5.31809 | 39053 ft | 513 kts | 76° |
| 2026-04-17 08:05 | 50.91975 | -5.20961 | 39046 ft | 513 kts | 76° |
| 2026-04-17 08:05 | 50.93957 | -5.10159 | 39046 ft | 513 kts | 76° |
| 2026-04-17 08:06 | 50.95942 | -4.99273 | 39040 ft | 513 kts | 77° |
| 2026-04-17 08:06 | 50.97916 | -4.88387 | 39040 ft | 513 kts | 77° |
| 2026-04-17 08:07 | 50.99880 | -4.77488 | 39053 ft | 513 kts | 77° |
| 2026-04-17 08:07 | 51.01820 | -4.66661 | 39048 ft | 512 kts | 77° |
| 2026-04-17 08:08 | 51.03759 | -4.55771 | 39053 ft | 511 kts | 77° |
| 2026-04-17 08:08 | 51.05690 | -4.44857 | 39061 ft | 511 kts | 77° |
| 2026-04-17 08:09 | 51.07598 | -4.34012 | 39058 ft | 511 kts | 77° |
| 2026-04-17 08:09 | 51.09507 | -4.23090 | 39044 ft | 511 kts | 77° |
| 2026-04-17 08:10 | 51.11390 | -4.12256 | 39062 ft | 511 kts | 77° |
| 2026-04-17 08:10 | 51.13280 | -4.01312 | 39067 ft | 510 kts | 77° |
| 2026-04-17 08:11 | 51.15141 | -3.90469 | 39073 ft | 510 kts | 77° |
| 2026-04-17 08:11 | 51.17002 | -3.79552 | 39046 ft | 510 kts | 77° |
| 2026-04-17 08:12 | 51.18463 | -3.68507 | 39081 ft | 507 kts | 82° |
| 2026-04-17 08:12 | 51.19631 | -3.57437 | 39086 ft | 506 kts | 83° |
| 2026-04-17 08:13 | 51.20734 | -3.46367 | 39085 ft | 505 kts | 83° |
| 2026-04-17 08:14 | 51.22369 | -3.29793 | 39081 ft | 505 kts | 83° |
| 2026-04-17 08:14 | 51.23458 | -3.18716 | 39102 ft | 503 kts | 83° |
| 2026-04-17 08:15 | 51.24528 | -3.07737 | 39099 ft | 503 kts | 83° |
| 2026-04-17 08:15 | 51.25593 | -2.96700 | 39109 ft | 503 kts | 83° |
| 2026-04-17 08:16 | 51.26648 | -2.85650 | 39084 ft | 503 kts | 84° |
| 2026-04-17 08:16 | 51.27644 | -2.75108 | 39117 ft | 502 kts | 83° |
| 2026-04-17 08:17 | 51.28669 | -2.64137 | 39123 ft | 502 kts | 83° |
| 2026-04-17 08:17 | 51.29691 | -2.53104 | 39123 ft | 502 kts | 83° |
| 2026-04-17 08:18 | 51.30701 | -2.42069 | 39131 ft | 502 kts | 83° |
| 2026-04-17 08:18 | 51.31702 | -2.31031 | 39131 ft | 503 kts | 83° |
| 2026-04-17 08:19 | 51.32532 | -2.21773 | 39122 ft | 505 kts | 84° |
| 2026-04-17 08:19 | 51.33521 | -2.10634 | 39125 ft | 506 kts | 84° |
| 2026-04-17 08:20 | 51.34716 | -1.99620 | 39132 ft | 507 kts | 75° |
| 2026-04-17 08:20 | 51.36883 | -1.88866 | 39129 ft | 507 kts | 71° |
| 2026-04-17 08:21 | 51.39044 | -1.78108 | 39132 ft | 507 kts | 73° |
| 2026-04-17 08:21 | 51.41068 | -1.67293 | 39136 ft | 506 kts | 73° |
| 2026-04-17 08:22 | 51.43100 | -1.56483 | 39132 ft | 507 kts | 73° |
| 2026-04-17 08:22 | 51.45122 | -1.45713 | 39138 ft | 507 kts | 73° |
| 2026-04-17 08:23 | 51.47151 | -1.34861 | 39133 ft | 506 kts | 73° |
| 2026-04-17 08:23 | 51.49147 | -1.24124 | 39132 ft | 505 kts | 73° |
| 2026-04-17 08:24 | 51.51147 | -1.13308 | 39130 ft | 505 kts | 73° |
| 2026-04-17 08:24 | 51.53136 | -1.02486 | 39131 ft | 505 kts | 73° |
| 2026-04-17 08:25 | 51.55114 | -0.91661 | 39146 ft | 505 kts | 73° |
| 2026-04-17 08:25 | 51.57081 | -0.80833 | 39149 ft | 504 kts | 73° |
| 2026-04-17 08:26 | 51.59039 | -0.69987 | 39155 ft | 505 kts | 73° |
| 2026-04-17 08:26 | 51.60975 | -0.59207 | 39156 ft | 505 kts | 73° |
| 2026-04-17 08:27 | 51.62916 | -0.48325 | 39156 ft | 505 kts | 73° |
| 2026-04-17 08:27 | 51.64849 | -0.37428 | 39102 ft | 505 kts | 74° |
| 2026-04-17 08:28 | 51.66768 | -0.26543 | 39102 ft | 505 kts | 74° |
| 2026-04-17 08:28 | 51.68668 | -0.15697 | 39102 ft | 505 kts | 74° |
| 2026-04-17 08:29 | 51.70567 | -0.04792 | 39112 ft | 505 kts | 74° |
| 2026-04-17 08:29 | 51.72453 | 0.06106 | 39157 ft | 504 kts | 74° |
| 2026-04-17 08:30 | 51.74328 | 0.17010 | 39161 ft | 503 kts | 74° |
| 2026-04-17 08:30 | 51.76178 | 0.27833 | 39159 ft | 503 kts | 74° |
| 2026-04-17 08:31 | 51.78030 | 0.38735 | 39156 ft | 503 kts | 74° |
| 2026-04-17 08:31 | 51.79870 | 0.49635 | 39159 ft | 503 kts | 74° |
| 2026-04-17 08:32 | 51.81689 | 0.60478 | 39163 ft | 501 kts | 74° |
| 2026-04-17 08:32 | 51.83506 | 0.71379 | 39168 ft | 501 kts | 74° |
| 2026-04-17 08:33 | 51.85313 | 0.82285 | 38932 ft | 499 kts | 74° |
| 2026-04-17 08:33 | 51.86203 | 0.87688 | 38676 ft | 495 kts | 74° |
| 2026-04-17 08:33 | 51.87088 | 0.93072 | 38381 ft | 494 kts | 74° |
| 2026-04-17 08:33 | 51.87969 | 0.98449 | 38096 ft | 495 kts | 74° |
| 2026-04-17 08:34 | 51.88848 | 1.03834 | 37812 ft | 495 kts | 74° |
| 2026-04-17 08:34 | 51.89723 | 1.09208 | 37530 ft | 495 kts | 74° |
| 2026-04-17 08:34 | 51.90587 | 1.14536 | 37264 ft | 495 kts | 74° |
| 2026-04-17 08:34 | 51.91462 | 1.19945 | 36997 ft | 496 kts | 74° |
| 2026-04-17 08:35 | 51.92336 | 1.25362 | 36735 ft | 496 kts | 75° |
| 2026-04-17 08:35 | 51.93204 | 1.30765 | 36473 ft | 497 kts | 75° |
| 2026-04-17 08:35 | 51.94076 | 1.36213 | 36222 ft | 497 kts | 75° |
| 2026-04-17 08:35 | 51.94935 | 1.41588 | 35966 ft | 498 kts | 75° |
| 2026-04-17 08:36 | 51.95799 | 1.47021 | 35577 ft | 494 kts | 75° |
| 2026-04-17 08:36 | 51.96651 | 1.52397 | 35032 ft | 493 kts | 75° |
| 2026-04-17 08:36 | 51.97507 | 1.57807 | 34283 ft | 498 kts | 75° |
| 2026-04-17 08:36 | 51.98369 | 1.63274 | 33392 ft | 502 kts | 75° |
| 2026-04-17 08:37 | 51.99230 | 1.68760 | 32565 ft | 504 kts | 76° |
| 2026-04-17 08:37 | 52.00098 | 1.74306 | 31721 ft | 506 kts | 76° |
| 2026-04-17 08:37 | 52.00966 | 1.79868 | 30884 ft | 508 kts | 76° |
| 2026-04-17 08:37 | 52.01826 | 1.85402 | 30324 ft | 504 kts | 76° |
| 2026-04-17 08:38 | 52.02668 | 1.90835 | 29668 ft | 500 kts | 76° |
| 2026-04-17 08:38 | 52.03509 | 1.96283 | 29054 ft | 495 kts | 77° |
| 2026-04-17 08:38 | 52.04342 | 2.01695 | 28411 ft | 490 kts | 76° |
| 2026-04-17 08:38 | 52.05163 | 2.07051 | 27799 ft | 486 kts | 77° |
| 2026-04-17 08:39 | 52.05976 | 2.12368 | 27203 ft | 482 kts | 77° |
| 2026-04-17 08:39 | 52.06778 | 2.17629 | 26564 ft | 478 kts | 77° |
| 2026-04-17 08:39 | 52.07576 | 2.22887 | 25886 ft | 476 kts | 77° |
| 2026-04-17 08:39 | 52.08361 | 2.28073 | 25348 ft | 470 kts | 77° |
| 2026-04-17 08:40 | 52.09127 | 2.33149 | 24746 ft | 467 kts | 77° |
| 2026-04-17 08:40 | 52.09900 | 2.38287 | 24116 ft | 464 kts | 77° |
| 2026-04-17 08:40 | 52.10663 | 2.43376 | 23420 ft | 462 kts | 77° |
| 2026-04-17 08:40 | 52.11548 | 2.48375 | 22804 ft | 456 kts | 68° |
| 2026-04-17 08:41 | 52.12950 | 2.52930 | 22538 ft | 443 kts | 60° |
| 2026-04-17 08:41 | 52.14482 | 2.57209 | 22152 ft | 433 kts | 59° |
| 2026-04-17 08:41 | 52.16014 | 2.61397 | 21729 ft | 426 kts | 59° |
| 2026-04-17 08:41 | 52.17506 | 2.65485 | 21320 ft | 424 kts | 59° |
| 2026-04-17 08:42 | 52.19007 | 2.69619 | 20912 ft | 422 kts | 59° |
| 2026-04-17 08:42 | 52.20495 | 2.73730 | 20516 ft | 419 kts | 59° |
| 2026-04-17 08:42 | 52.21965 | 2.77809 | 20110 ft | 416 kts | 59° |
| 2026-04-17 08:42 | 52.23423 | 2.81861 | 19703 ft | 413 kts | 59° |
| 2026-04-17 08:43 | 52.24871 | 2.85895 | 19290 ft | 409 kts | 60° |
| 2026-04-17 08:43 | 52.26285 | 2.89840 | 18918 ft | 407 kts | 60° |
| 2026-04-17 08:43 | 52.27710 | 2.93822 | 18526 ft | 404 kts | 60° |
| 2026-04-17 08:43 | 52.29119 | 2.97768 | 18083 ft | 401 kts | 60° |
| 2026-04-17 08:44 | 52.30518 | 3.01693 | 17704 ft | 399 kts | 60° |
| 2026-04-17 08:44 | 52.31910 | 3.05604 | 17317 ft | 397 kts | 60° |
| 2026-04-17 08:44 | 52.33296 | 3.09502 | 16930 ft | 394 kts | 60° |
| 2026-04-17 08:44 | 52.34670 | 3.13372 | 16548 ft | 392 kts | 60° |
| 2026-04-17 08:45 | 52.36033 | 3.17220 | 16171 ft | 390 kts | 60° |
| 2026-04-17 08:45 | 52.37384 | 3.21038 | 15797 ft | 387 kts | 60° |
| 2026-04-17 08:45 | 52.38717 | 3.24811 | 15424 ft | 385 kts | 60° |
| 2026-04-17 08:45 | 52.40056 | 3.28606 | 15047 ft | 383 kts | 61° |
| 2026-04-17 08:46 | 52.41384 | 3.32379 | 14681 ft | 380 kts | 61° |
| 2026-04-17 08:46 | 52.42704 | 3.36132 | 14309 ft | 378 kts | 61° |
| 2026-04-17 08:46 | 52.44008 | 3.39861 | 13947 ft | 376 kts | 62° |
| 2026-04-17 08:46 | 52.45012 | 3.43780 | 13572 ft | 371 kts | 75° |
| 2026-04-17 08:47 | 52.45659 | 3.47806 | 13219 ft | 369 kts | 78° |
| 2026-04-17 08:47 | 52.46244 | 3.51913 | 12851 ft | 367 kts | 79° |
| 2026-04-17 08:47 | 52.46816 | 3.55987 | 12499 ft | 366 kts | 79° |
| 2026-04-17 08:47 | 52.47387 | 3.60038 | 12158 ft | 364 kts | 79° |
| 2026-04-17 08:48 | 52.47957 | 3.64070 | 11806 ft | 362 kts | 79° |
| 2026-04-17 08:48 | 52.48525 | 3.68081 | 11454 ft | 360 kts | 79° |
| 2026-04-17 08:48 | 52.49082 | 3.72007 | 11235 ft | 346 kts | 79° |
| 2026-04-17 08:48 | 52.49619 | 3.75799 | 10951 ft | 336 kts | 79° |
| 2026-04-17 08:49 | 52.50136 | 3.79456 | 10629 ft | 329 kts | 79° |
| 2026-04-17 08:49 | 52.50645 | 3.83077 | 10327 ft | 322 kts | 79° |
| 2026-04-17 08:49 | 52.51143 | 3.86618 | 10098 ft | 312 kts | 79° |
| 2026-04-17 08:49 | 52.51628 | 3.90082 | 9639 ft | 311 kts | 79° |
| 2026-04-17 08:50 | 52.52110 | 3.93530 | 9241 ft | 307 kts | 79° |
| 2026-04-17 08:50 | 52.52513 | 3.96913 | 8893 ft | 301 kts | 85° |
| 2026-04-17 08:50 | 52.52688 | 4.00316 | 8619 ft | 297 kts | 89° |
| 2026-04-17 08:50 | 52.52798 | 4.03689 | 8346 ft | 295 kts | 89° |
| 2026-04-17 08:51 | 52.52899 | 4.07048 | 8076 ft | 293 kts | 89° |
| 2026-04-17 08:51 | 52.52998 | 4.10333 | 7789 ft | 291 kts | 89° |
| 2026-04-17 08:51 | 52.53099 | 4.13649 | 7508 ft | 289 kts | 89° |
| 2026-04-17 08:51 | 52.53200 | 4.16943 | 7225 ft | 287 kts | 89° |
| 2026-04-17 08:52 | 52.53300 | 4.20210 | 6943 ft | 285 kts | 89° |
| 2026-04-17 08:52 | 52.53399 | 4.23464 | 6672 ft | 284 kts | 89° |
| 2026-04-17 08:52 | 52.53497 | 4.26683 | 6384 ft | 282 kts | 89° |
| 2026-04-17 08:52 | 52.53592 | 4.29857 | 6114 ft | 281 kts | 89° |
| 2026-04-17 08:53 | 52.53688 | 4.33059 | 5834 ft | 280 kts | 89° |
| 2026-04-17 08:53 | 52.53782 | 4.36244 | 5560 ft | 279 kts | 89° |
| 2026-04-17 08:53 | 52.53875 | 4.39422 | 5301 ft | 277 kts | 89° |
| 2026-04-17 08:53 | 52.53966 | 4.42582 | 5019 ft | 276 kts | 89° |
| 2026-04-17 08:54 | 52.54057 | 4.45724 | 4741 ft | 275 kts | 89° |
| 2026-04-17 08:54 | 52.54146 | 4.48863 | 4473 ft | 274 kts | 89° |
| 2026-04-17 08:54 | 52.54235 | 4.52001 | 4028 ft | 275 kts | 89° |
| 2026-04-17 08:54 | 52.54322 | 4.55124 | 3696 ft | 272 kts | 89° |
| 2026-04-17 08:55 | 52.54404 | 4.58203 | 3471 ft | 266 kts | 90° |
| 2026-04-17 08:55 | 52.54376 | 4.61187 | 3275 ft | 257 kts | 94° |
| 2026-04-17 08:55 | 52.54290 | 4.64058 | 3048 ft | 251 kts | 95° |
| 2026-04-17 08:55 | 52.54116 | 4.66885 | 2802 ft | 246 kts | 105° |
| 2026-04-17 08:56 | 52.53407 | 4.69370 | 2556 ft | 238 kts | 129° |
| 2026-04-17 08:56 | 52.52247 | 4.71223 | 2337 ft | 229 kts | 153° |
| 2026-04-17 08:56 | 52.50770 | 4.72121 | 2091 ft | 224 kts | 168° |
| 2026-04-17 08:56 | 52.49255 | 4.72397 | 1994 ft | 213 kts | 182° |
| 2026-04-17 08:57 | 52.47811 | 4.72247 | 1981 ft | 202 kts | 186° |
| 2026-04-17 08:57 | 52.46444 | 4.72108 | 1981 ft | 191 kts | 185° |
| 2026-04-17 08:57 | 52.45121 | 4.71997 | 1863 ft | 191 kts | 184° |
| 2026-04-17 08:57 | 52.43801 | 4.71890 | 1595 ft | 194 kts | 185° |
| 2026-04-17 08:58 | 52.42470 | 4.71766 | 1317 ft | 186 kts | 184° |
| 2026-04-17 08:58 | 52.41222 | 4.71650 | 1072 ft | 173 kts | 184° |
| 2026-04-17 08:58 | 52.40063 | 4.71544 | 827 ft | 161 kts | 184° |
| 2026-04-17 08:58 | 52.38972 | 4.71444 | 609 ft | 150 kts | 184° |
| 2026-04-17 08:59 | 52.37967 | 4.71353 | 410 ft | 140 kts | 184° |
| 2026-04-17 08:59 | 52.37007 | 4.71265 | 233 ft | 138 kts | 183° |
| 2026-04-17 08:59 | 52.36063 | 4.71176 | 49 ft | 137 kts | 184° |
| 2026-04-17 08:59 | 52.35165 | 4.71089 | 9 ft | 117 kts | 184° |
| 2026-04-17 09:00 | 52.34502 | 4.71032 | 2 ft | 67 kts | 183° |
| 2026-04-17 09:00 | 52.34191 | 4.71005 | 0 ft | 36 kts | 183° |
| 2026-04-17 09:00 | 52.33973 | 4.70985 | 3 ft | 25 kts | 183° |
| 2026-04-17 09:00 | 52.33811 | 4.71051 | 2 ft | 24 kts | 156° |
| 2026-04-17 09:01 | 52.33664 | 4.71168 | 3 ft | 24 kts | 152° |
| 2026-04-17 09:01 | 52.33506 | 4.71233 | 3 ft | 24 kts | 184° |
| 2026-04-17 09:01 | 52.33337 | 4.71216 | 3 ft | 24 kts | 182° |
| 2026-04-17 09:01 | 52.33225 | 4.71258 | 3 ft | 16 kts | 141° |
| 2026-04-17 09:02 | 52.33145 | 4.71398 | 3 ft | 18 kts | 132° |
| 2026-04-17 09:02 | 52.33060 | 4.71558 | 3 ft | 20 kts | 131° |
| 2026-04-17 09:02 | 52.32965 | 4.71732 | 3 ft | 21 kts | 131° |
| 2026-04-17 09:02 | 52.32863 | 4.71920 | 3 ft | 23 kts | 130° |
| 2026-04-17 09:03 | 52.32838 | 4.72129 | 3 ft | 19 kts | 84° |
| 2026-04-17 09:03 | 52.32785 | 4.72326 | 3 ft | 20 kts | 131° |
| 2026-04-17 09:03 | 52.32689 | 4.72501 | 3 ft | 22 kts | 132° |
| 2026-04-17 09:03 | 52.32574 | 4.72672 | 3 ft | 23 kts | 139° |
| 2026-04-17 09:04 | 52.32450 | 4.72847 | 3 ft | 24 kts | 139° |
| 2026-04-17 09:04 | 52.32321 | 4.73032 | 3 ft | 25 kts | 141° |
| 2026-04-17 09:04 | 52.32188 | 4.73216 | 3 ft | 25 kts | 140° |
| 2026-04-17 09:04 | 52.32078 | 4.73378 | 3 ft | 15 kts | 127° |
| 2026-04-17 09:05 | 52.32054 | 4.73554 | 3 ft | 17 kts | 92° |
| 2026-04-17 09:05 | 52.32046 | 4.73757 | 3 ft | 19 kts | 93° |
| 2026-04-17 09:05 | 52.32038 | 4.73986 | 2 ft | 21 kts | 93° |
| 2026-04-17 09:05 | 52.32021 | 4.74162 | 3 ft | 12 kts | 130° |
| 2026-04-17 09:06 | 52.31940 | 4.74189 | 3 ft | 13 kts | 184° |
| 2026-04-17 09:06 | 52.31845 | 4.74181 | 3 ft | 15 kts | 183° |
| 2026-04-17 09:06 | 52.31735 | 4.74171 | 3 ft | 17 kts | 183° |
| 2026-04-17 09:06 | 52.31615 | 4.74160 | 3 ft | 18 kts | 183° |
| 2026-04-17 09:07 | 52.31481 | 4.74147 | 3 ft | 18 kts | 184° |
| 2026-04-17 09:07 | 52.31393 | 4.74184 | 3 ft | 12 kts | 117° |
| 2026-04-17 09:07 | 52.31389 | 4.74320 | 3 ft | 13 kts | 87° |
| 2026-04-17 09:07 | 52.31394 | 4.74481 | 3 ft | 15 kts | 87° |
| 2026-04-17 09:08 | 52.31401 | 4.74666 | 3 ft | 17 kts | 87° |
| 2026-04-17 09:08 | 52.31407 | 4.74876 | 3 ft | 20 kts | 87° |
| 2026-04-17 09:08 | 52.31414 | 4.75110 | 3 ft | 22 kts | 86° |
| 2026-04-17 09:08 | 52.31423 | 4.75368 | 3 ft | 24 kts | 86° |
| 2026-04-17 09:09 | 52.31429 | 4.75549 | 3 ft | 25 kts | 86° |
| 2026-04-17 09:09 | 52.31441 | 4.75838 | 3 ft | 26 kts | 86° |
| 2026-04-17 09:09 | 52.31451 | 4.76144 | 3 ft | 28 kts | 87° |
| 2026-04-17 09:09 | 52.31460 | 4.76406 | 3 ft | 12 kts | 85° |
| 2026-04-17 09:10 | 52.31411 | 4.76649 | 3 ft | 9 kts | 114° |
| 2026-04-17 09:10 | 52.31394 | 4.76696 | 3 ft | 6 kts | 121° |
| 2026-04-17 09:10 | 52.31381 | 4.76730 | 3 ft | 2 kts | 122° |
| 2026-04-17 09:11 | 52.31376 | 4.76743 | 3 ft | 0 kts | 123° |